<?xml version='1.0' encoding='UTF-8'?><gpx version="1.1" creator="JPX - https://github.com/jenetics/jpx" xmlns="http://www.topografix.com/GPX/1/1"><trk><trkseg><trkpt lat="45.549827510544226" lon="10.419787840021087"><ele>190.0</ele><time>2026-04-18T08:52:00.01Z</time></trkpt><trkpt lat="45.54989027424114" lon="10.419855362823375"><ele>190.0</ele><time>2026-04-18T08:52:02.009Z</time></trkpt><trkpt lat="45.54993476124618" lon="10.419944172791874"><ele>190.0</ele><time>2026-04-18T08:52:05.007Z</time></trkpt><trkpt lat="45.550063370309346" lon="10.41988826654745"><ele>190.0</ele><time>2026-04-18T08:52:09.005Z</time></trkpt><trkpt lat="45.55013832789682" lon="10.419790022315823"><ele>190.0</ele><time>2026-04-18T08:52:11.005Z</time></trkpt><trkpt lat="45.55018854300336" lon="10.4196797998202"><ele>189.75</ele><time>2026-04-18T08:52:13.004Z</time></trkpt><trkpt lat="45.550276370702086" lon="10.419581265275923"><ele>189.5</ele><time>2026-04-18T08:52:15.003Z</time></trkpt><trkpt lat="45.55036180891635" lon="10.419457781443143"><ele>189.25</ele><time>2026-04-18T08:52:17.003Z</time></trkpt><trkpt lat="45.55044348169181" lon="10.419337115084042"><ele>189.0</ele><time>2026-04-18T08:52:19.002Z</time></trkpt><trkpt lat="45.55052545546955" lon="10.419215907409905"><ele>189.0</ele><time>2026-04-18T08:52:21.002Z</time></trkpt><trkpt lat="45.55061048522165" lon="10.41909018114212"><ele>189.0</ele><time>2026-04-18T08:52:23.002Z</time></trkpt><trkpt lat="45.550697300424225" lon="10.418949225710005"><ele>189.0</ele><time>2026-04-18T08:52:25.001Z</time></trkpt><trkpt lat="45.55073730844788" lon="10.418878962782903"><ele>189.0</ele><time>2026-04-18T08:52:26.001Z</time></trkpt><trkpt lat="45.550823546729994" lon="10.418747717635162"><ele>189.0</ele><time>2026-04-18T08:52:28.001Z</time></trkpt><trkpt lat="45.55087008453938" lon="10.41868494696455"><ele>189.2</ele><time>2026-04-18T08:52:29.001Z</time></trkpt><trkpt lat="45.55091822954597" lon="10.4186248714779"><ele>189.39999999999998</ele><time>2026-04-18T08:52:30.001Z</time></trkpt><trkpt lat="45.55099981388585" lon="10.418498737514076"><ele>189.6</ele><time>2026-04-18T08:52:32.001Z</time></trkpt><trkpt lat="45.55104916487898" lon="10.418427955824122"><ele>189.8</ele><time>2026-04-18T08:52:33Z</time></trkpt><trkpt lat="45.55114858299474" lon="10.418293374516995"><ele>190.0</ele><time>2026-04-18T08:52:35Z</time></trkpt><trkpt lat="45.55119893743403" lon="10.418224791242173"><ele>190.0</ele><time>2026-04-18T08:52:36Z</time></trkpt><trkpt lat="45.55124445439598" lon="10.418154453196236"><ele>190.0</ele><time>2026-04-18T08:52:37Z</time></trkpt><trkpt lat="45.55129186526803" lon="10.418081745813087"><ele>190.0</ele><time>2026-04-18T08:52:38Z</time></trkpt><trkpt lat="45.5513267550739" lon="10.417992648494632"><ele>190.0</ele><time>2026-04-18T08:52:39Z</time></trkpt><trkpt lat="45.551365186219634" lon="10.41791443019517"><ele>190.0</ele><time>2026-04-18T08:52:40Z</time></trkpt><trkpt lat="45.55141084851464" lon="10.41783635037554"><ele>190.0</ele><time>2026-04-18T08:52:41Z</time></trkpt><trkpt lat="45.55145030860129" lon="10.417749263731304"><ele>190.0</ele><time>2026-04-18T08:52:42Z</time></trkpt><trkpt lat="45.55148470942508" lon="10.417661477312917"><ele>189.83333333333334</ele><time>2026-04-18T08:52:43Z</time></trkpt><trkpt lat="45.55153009698356" lon="10.417580575928245"><ele>189.66666666666669</ele><time>2026-04-18T08:52:44Z</time></trkpt><trkpt lat="45.55155614459314" lon="10.41746648260587"><ele>189.5</ele><time>2026-04-18T08:52:45Z</time></trkpt><trkpt lat="45.55157273557648" lon="10.417352208785532"><ele>189.33333333333334</ele><time>2026-04-18T08:52:46Z</time></trkpt><trkpt lat="45.55158854072835" lon="10.41724217920156"><ele>189.16666666666666</ele><time>2026-04-18T08:52:47Z</time></trkpt><trkpt lat="45.55158903225857" lon="10.417127914345198"><ele>189.0</ele><time>2026-04-18T08:52:48Z</time></trkpt><trkpt lat="45.55160987192967" lon="10.417022436840275"><ele>188.5</ele><time>2026-04-18T08:52:49Z</time></trkpt><trkpt lat="45.551621153605126" lon="10.416923183317259"><ele>188.0</ele><time>2026-04-18T08:52:50Z</time></trkpt><trkpt lat="45.55163814579819" lon="10.416823011226587"><ele>187.5</ele><time>2026-04-18T08:52:51Z</time></trkpt><trkpt lat="45.551654051730864" lon="10.416730437018842"><ele>187.0</ele><time>2026-04-18T08:52:52Z</time></trkpt><trkpt lat="45.55168105724098" lon="10.416647469246806"><ele>186.5</ele><time>2026-04-18T08:52:52.999Z</time></trkpt><trkpt lat="45.551699500710775" lon="10.416500935857128"><ele>186.0</ele><time>2026-04-18T08:52:54.999Z</time></trkpt><trkpt lat="45.55169333972144" lon="10.416339335680226"><ele>186.0</ele><time>2026-04-18T08:52:56.999Z</time></trkpt><trkpt lat="45.55169906081412" lon="10.416189318943493"><ele>186.0</ele><time>2026-04-18T08:52:58.999Z</time></trkpt><trkpt lat="45.55171303520678" lon="10.4160294415202"><ele>186.0</ele><time>2026-04-18T08:53:00.999Z</time></trkpt><trkpt lat="45.55174259109194" lon="10.41586833059236"><ele>186.0</ele><time>2026-04-18T08:53:02.999Z</time></trkpt><trkpt lat="45.55176761191821" lon="10.41578069125039"><ele>186.0</ele><time>2026-04-18T08:53:03.999Z</time></trkpt><trkpt lat="45.55181125250577" lon="10.415682560091806"><ele>186.0</ele><time>2026-04-18T08:53:04.999Z</time></trkpt><trkpt lat="45.551849354048294" lon="10.415544185443125"><ele>186.0</ele><time>2026-04-18T08:53:06.999Z</time></trkpt><trkpt lat="45.55186887143539" lon="10.415376454876272"><ele>186.0</ele><time>2026-04-18T08:53:08.999Z</time></trkpt><trkpt lat="45.55189716977577" lon="10.415208820716877"><ele>186.0</ele><time>2026-04-18T08:53:10.999Z</time></trkpt><trkpt lat="45.551924168625455" lon="10.415124575916245"><ele>186.0</ele><time>2026-04-18T08:53:11.999Z</time></trkpt><trkpt lat="45.55192120513268" lon="10.415029716740795"><ele>186.20000000000002</ele><time>2026-04-18T08:53:12.999Z</time></trkpt><trkpt lat="45.55193328290813" lon="10.414934408561926"><ele>186.4</ele><time>2026-04-18T08:53:13.999Z</time></trkpt><trkpt lat="45.55195343768196" lon="10.414764812491144"><ele>186.6</ele><time>2026-04-18T08:53:15.999Z</time></trkpt><trkpt lat="45.55197416268479" lon="10.414605150884706"><ele>186.8</ele><time>2026-04-18T08:53:17.999Z</time></trkpt><trkpt lat="45.551996815726376" lon="10.414442731711137"><ele>187.0</ele><time>2026-04-18T08:53:19.999Z</time></trkpt><trkpt lat="45.5520217870306" lon="10.414281249704343"><ele>187.0</ele><time>2026-04-18T08:53:21.999Z</time></trkpt><trkpt lat="45.55205116759312" lon="10.414109310500947"><ele>187.0</ele><time>2026-04-18T08:53:23.999Z</time></trkpt><trkpt lat="45.55206884874314" lon="10.41402153124432"><ele>187.0</ele><time>2026-04-18T08:53:24.999Z</time></trkpt><trkpt lat="45.552123698363935" lon="10.413864254411688"><ele>187.0</ele><time>2026-04-18T08:53:26.999Z</time></trkpt><trkpt lat="45.55217683620604" lon="10.413730969475491"><ele>187.0</ele><time>2026-04-18T08:53:28.999Z</time></trkpt><trkpt lat="45.55224009211629" lon="10.413613626648917"><ele>187.25</ele><time>2026-04-18T08:53:30.999Z</time></trkpt><trkpt lat="45.55232174040251" lon="10.413495835749622"><ele>187.5</ele><time>2026-04-18T08:53:32.999Z</time></trkpt><trkpt lat="45.55240600783251" lon="10.413388880775411"><ele>187.75</ele><time>2026-04-18T08:53:34.999Z</time></trkpt><trkpt lat="45.55249037537769" lon="10.413277236922141"><ele>188.0</ele><time>2026-04-18T08:53:36.999Z</time></trkpt><trkpt lat="45.55254764047378" lon="10.41314818928609"><ele>188.0</ele><time>2026-04-18T08:53:38.999Z</time></trkpt><trkpt lat="45.55254683930239" lon="10.413012787502593"><ele>188.0</ele><time>2026-04-18T08:53:40.999Z</time></trkpt><trkpt lat="45.552480433621895" lon="10.41293125421425"><ele>188.0</ele><time>2026-04-18T08:53:42.999Z</time></trkpt><trkpt lat="45.55240072131962" lon="10.412858354682244"><ele>188.0</ele><time>2026-04-18T08:53:44.999Z</time></trkpt><trkpt lat="45.55233480885059" lon="10.412773524915325"><ele>188.0</ele><time>2026-04-18T08:53:46.999Z</time></trkpt><trkpt lat="45.55226657522116" lon="10.412683206842448"><ele>188.0</ele><time>2026-04-18T08:53:48.999Z</time></trkpt><trkpt lat="45.55220460245574" lon="10.412598866123476"><ele>188.0</ele><time>2026-04-18T08:53:50.999Z</time></trkpt><trkpt lat="45.552142366051925" lon="10.412505464473991"><ele>188.0</ele><time>2026-04-18T08:53:52.999Z</time></trkpt><trkpt lat="45.552084378382354" lon="10.412409700245503"><ele>188.0</ele><time>2026-04-18T08:53:54.999Z</time></trkpt><trkpt lat="45.552040106089535" lon="10.412300297187311"><ele>188.0</ele><time>2026-04-18T08:53:56.999Z</time></trkpt><trkpt lat="45.55196696784797" lon="10.412196238464027"><ele>187.33333333333331</ele><time>2026-04-18T08:53:58.999Z</time></trkpt><trkpt lat="45.55191111570389" lon="10.412084186230429"><ele>186.66666666666666</ele><time>2026-04-18T08:54:00.999Z</time></trkpt><trkpt lat="45.551867004264594" lon="10.41197860357424"><ele>186.0</ele><time>2026-04-18T08:54:03Z</time></trkpt><trkpt lat="45.55191491165131" lon="10.411881729876631"><ele>185.33333333333334</ele><time>2026-04-18T08:54:06Z</time></trkpt><trkpt lat="45.55197076961494" lon="10.411785390229856"><ele>184.66666666666669</ele><time>2026-04-18T08:54:08Z</time></trkpt><trkpt lat="45.5520430319607" lon="10.411785371089106"><ele>184.0</ele><time>2026-04-18T08:54:09Z</time></trkpt><trkpt lat="45.55208203899199" lon="10.41171197471616"><ele>184.0</ele><time>2026-04-18T08:54:10Z</time></trkpt><trkpt lat="45.552198854544585" lon="10.411640092130305"><ele>184.0</ele><time>2026-04-18T08:54:12Z</time></trkpt><trkpt lat="45.55230468071287" lon="10.41153959313897"><ele>184.0</ele><time>2026-04-18T08:54:14Z</time></trkpt><trkpt lat="45.55237129145257" lon="10.411503230947558"><ele>184.0</ele><time>2026-04-18T08:54:15Z</time></trkpt><trkpt lat="45.552430092660806" lon="10.411453087136403"><ele>184.0</ele><time>2026-04-18T08:54:16Z</time></trkpt><trkpt lat="45.55255209332383" lon="10.411341928678556"><ele>184.0</ele><time>2026-04-18T08:54:18Z</time></trkpt><trkpt lat="45.55260908890159" lon="10.41128920855132"><ele>184.0</ele><time>2026-04-18T08:54:19Z</time></trkpt><trkpt lat="45.55266743361058" lon="10.4112368352101"><ele>184.0</ele><time>2026-04-18T08:54:20Z</time></trkpt><trkpt lat="45.55272658466034" lon="10.411183986629126"><ele>184.0</ele><time>2026-04-18T08:54:21Z</time></trkpt><trkpt lat="45.55278073991954" lon="10.411135601550063"><ele>184.0</ele><time>2026-04-18T08:54:22Z</time></trkpt><trkpt lat="45.55284235776105" lon="10.411080789886123"><ele>184.0</ele><time>2026-04-18T08:54:23Z</time></trkpt><trkpt lat="45.552904360437005" lon="10.41102574515036"><ele>184.0</ele><time>2026-04-18T08:54:24Z</time></trkpt><trkpt lat="45.55295822294064" lon="10.410977927092546"><ele>184.0</ele><time>2026-04-18T08:54:25Z</time></trkpt><trkpt lat="45.553022641891104" lon="10.41092073724595"><ele>184.0</ele><time>2026-04-18T08:54:26Z</time></trkpt><trkpt lat="45.55307937510428" lon="10.410870370609882"><ele>184.0</ele><time>2026-04-18T08:54:27Z</time></trkpt><trkpt lat="45.55313601715983" lon="10.410820084930176"><ele>184.0</ele><time>2026-04-18T08:54:28Z</time></trkpt><trkpt lat="45.55319668832424" lon="10.410766222274107"><ele>184.0</ele><time>2026-04-18T08:54:29Z</time></trkpt><trkpt lat="45.55325271446252" lon="10.410716483390607"><ele>184.0</ele><time>2026-04-18T08:54:30Z</time></trkpt><trkpt lat="45.55331028272491" lon="10.410665375428053"><ele>184.0</ele><time>2026-04-18T08:54:31Z</time></trkpt><trkpt lat="45.553369081323616" lon="10.41061317517391"><ele>184.0</ele><time>2026-04-18T08:54:32Z</time></trkpt><trkpt lat="45.55342388879853" lon="10.410540915391111"><ele>184.0</ele><time>2026-04-18T08:54:33Z</time></trkpt><trkpt lat="45.55347969860954" lon="10.41049300270297"><ele>184.0</ele><time>2026-04-18T08:54:34Z</time></trkpt><trkpt lat="45.55353031524713" lon="10.41043351398532"><ele>184.0</ele><time>2026-04-18T08:54:35Z</time></trkpt><trkpt lat="45.55359075556051" lon="10.410373510147195"><ele>184.0</ele><time>2026-04-18T08:54:36Z</time></trkpt><trkpt lat="45.55365759435913" lon="10.410336789603178"><ele>184.0</ele><time>2026-04-18T08:54:37Z</time></trkpt><trkpt lat="45.553715766057415" lon="10.410290942072294"><ele>184.0</ele><time>2026-04-18T08:54:38Z</time></trkpt><trkpt lat="45.55377743967221" lon="10.41023987316489"><ele>184.14285714285714</ele><time>2026-04-18T08:54:39Z</time></trkpt><trkpt lat="45.55383491843478" lon="10.410192277657163"><ele>184.28571428571428</ele><time>2026-04-18T08:54:40Z</time></trkpt><trkpt lat="45.55389503309526" lon="10.410148890860278"><ele>184.42857142857142</ele><time>2026-04-18T08:54:41Z</time></trkpt><trkpt lat="45.55394909164792" lon="10.410084022991734"><ele>184.57142857142856</ele><time>2026-04-18T08:54:42Z</time></trkpt><trkpt lat="45.55401092581344" lon="10.41003855952811"><ele>184.71428571428572</ele><time>2026-04-18T08:54:43Z</time></trkpt><trkpt lat="45.55408512084716" lon="10.410014876904022"><ele>184.85714285714283</ele><time>2026-04-18T08:54:44Z</time></trkpt><trkpt lat="45.55415208613836" lon="10.409977585096858"><ele>185.0</ele><time>2026-04-18T08:54:45Z</time></trkpt><trkpt lat="45.55421931079619" lon="10.409939630241233"><ele>184.99999999999997</ele><time>2026-04-18T08:54:46Z</time></trkpt><trkpt lat="45.5542804722564" lon="10.409909060252787"><ele>185.0</ele><time>2026-04-18T08:54:47Z</time></trkpt><trkpt lat="45.55434429452118" lon="10.40987613751517"><ele>185.0</ele><time>2026-04-18T08:54:48Z</time></trkpt><trkpt lat="45.55441214552641" lon="10.40984113655791"><ele>185.0</ele><time>2026-04-18T08:54:49Z</time></trkpt><trkpt lat="45.554480290582795" lon="10.409803704872619"><ele>185.0</ele><time>2026-04-18T08:54:50Z</time></trkpt><trkpt lat="45.55454653530432" lon="10.409756014522863"><ele>184.99999999999997</ele><time>2026-04-18T08:54:51Z</time></trkpt><trkpt lat="45.554607481581186" lon="10.409700938164406"><ele>185.0</ele><time>2026-04-18T08:54:52Z</time></trkpt><trkpt lat="45.55466377692025" lon="10.40965063192365"><ele>185.0</ele><time>2026-04-18T08:54:53Z</time></trkpt><trkpt lat="45.55471864263589" lon="10.409601603399956"><ele>185.0</ele><time>2026-04-18T08:54:54Z</time></trkpt><trkpt lat="45.55482166302347" lon="10.409512957623523"><ele>185.0</ele><time>2026-04-18T08:54:56Z</time></trkpt><trkpt lat="45.554908715767816" lon="10.409484610470162"><ele>185.0</ele><time>2026-04-18T08:54:58Z</time></trkpt><trkpt lat="45.554963088157315" lon="10.409532563872014"><ele>185.0</ele><time>2026-04-18T08:54:59Z</time></trkpt><trkpt lat="45.55502642710063" lon="10.409589981046226"><ele>185.0</ele><time>2026-04-18T08:55:00Z</time></trkpt><trkpt lat="45.55509388978967" lon="10.409614508157564"><ele>185.0</ele><time>2026-04-18T08:55:01Z</time></trkpt><trkpt lat="45.55516380981952" lon="10.409598278975986"><ele>185.0</ele><time>2026-04-18T08:55:02Z</time></trkpt><trkpt lat="45.55521604309046" lon="10.409545266933272"><ele>185.0</ele><time>2026-04-18T08:55:03Z</time></trkpt><trkpt lat="45.55526413663045" lon="10.409401121061356"><ele>185.0</ele><time>2026-04-18T08:55:05Z</time></trkpt><trkpt lat="45.55533146195573" lon="10.4092593033984"><ele>185.0</ele><time>2026-04-18T08:55:07Z</time></trkpt><trkpt lat="45.55535771065703" lon="10.40916708654564"><ele>185.0</ele><time>2026-04-18T08:55:08Z</time></trkpt><trkpt lat="45.5553807675827" lon="10.40906372229448"><ele>185.33333333333331</ele><time>2026-04-18T08:55:09Z</time></trkpt><trkpt lat="45.555408657265204" lon="10.40896593630667"><ele>185.66666666666666</ele><time>2026-04-18T08:55:10Z</time></trkpt><trkpt lat="45.5554273408478" lon="10.408866357560306"><ele>186.0</ele><time>2026-04-18T08:55:11Z</time></trkpt><trkpt lat="45.555541166576866" lon="10.408812398211852"><ele>186.33333333333334</ele><time>2026-04-18T08:55:12Z</time></trkpt><trkpt lat="45.55561288240584" lon="10.40873879981913"><ele>186.66666666666669</ele><time>2026-04-18T08:55:13Z</time></trkpt><trkpt lat="45.55567583225213" lon="10.408668710481571"><ele>187.0</ele><time>2026-04-18T08:55:14Z</time></trkpt><trkpt lat="45.55574246078098" lon="10.4085910146823"><ele>187.0</ele><time>2026-04-18T08:55:15Z</time></trkpt><trkpt lat="45.55581107017334" lon="10.408517393257682"><ele>187.0</ele><time>2026-04-18T08:55:16Z</time></trkpt><trkpt lat="45.55587957631281" lon="10.40842943078551"><ele>187.0</ele><time>2026-04-18T08:55:17Z</time></trkpt><trkpt lat="45.5559500192092" lon="10.408354037427834"><ele>187.0</ele><time>2026-04-18T08:55:18Z</time></trkpt><trkpt lat="45.556012771123825" lon="10.408280079262774"><ele>187.0</ele><time>2026-04-18T08:55:19Z</time></trkpt><trkpt lat="45.55606137808523" lon="10.408220886028436"><ele>187.0</ele><time>2026-04-18T08:55:20Z</time></trkpt><trkpt lat="45.55611831934634" lon="10.408165401102556"><ele>187.0</ele><time>2026-04-18T08:55:21Z</time></trkpt><trkpt lat="45.556172551992525" lon="10.408100461480542"><ele>187.0</ele><time>2026-04-18T08:55:22Z</time></trkpt><trkpt lat="45.556224064654586" lon="10.408027722249189"><ele>187.0</ele><time>2026-04-18T08:55:23Z</time></trkpt><trkpt lat="45.556269103683704" lon="10.40796003340262"><ele>187.0</ele><time>2026-04-18T08:55:24Z</time></trkpt><trkpt lat="45.556320350626" lon="10.407899635459515"><ele>187.0</ele><time>2026-04-18T08:55:25Z</time></trkpt><trkpt lat="45.55636712691176" lon="10.407831203204589"><ele>187.0</ele><time>2026-04-18T08:55:26Z</time></trkpt><trkpt lat="45.55645801229238" lon="10.407719972432883"><ele>190.25</ele><time>2026-04-18T08:55:28Z</time></trkpt><trkpt lat="45.55654811220685" lon="10.407661708758866"><ele>193.5</ele><time>2026-04-18T08:55:30Z</time></trkpt><trkpt lat="45.556482459575015" lon="10.407469969382975"><ele>196.75</ele><time>2026-04-18T08:55:32Z</time></trkpt><trkpt lat="45.55639318495629" lon="10.407386661686228"><ele>200.0</ele><time>2026-04-18T08:55:34Z</time></trkpt><trkpt lat="45.556318914268786" lon="10.40729389021638"><ele>200.00000000000003</ele><time>2026-04-18T08:55:36Z</time></trkpt><trkpt lat="45.55622553960805" lon="10.40719963135994"><ele>200.0</ele><time>2026-04-18T08:55:38Z</time></trkpt><trkpt lat="45.55613212264016" lon="10.407095238935947"><ele>200.0</ele><time>2026-04-18T08:55:40Z</time></trkpt><trkpt lat="45.55608006813037" lon="10.407033339352735"><ele>200.0</ele><time>2026-04-18T08:55:41Z</time></trkpt><trkpt lat="45.55603087834429" lon="10.40697426314394"><ele>200.00000000000003</ele><time>2026-04-18T08:55:42Z</time></trkpt><trkpt lat="45.55598253844092" lon="10.406903666134493"><ele>200.0</ele><time>2026-04-18T08:55:43Z</time></trkpt><trkpt lat="45.55593307064837" lon="10.406836415622898"><ele>198.71428571428572</ele><time>2026-04-18T08:55:44Z</time></trkpt><trkpt lat="45.555892758209" lon="10.406759605554765"><ele>197.42857142857144</ele><time>2026-04-18T08:55:45Z</time></trkpt><trkpt lat="45.555847886354044" lon="10.406687879384238"><ele>196.14285714285717</ele><time>2026-04-18T08:55:46Z</time></trkpt><trkpt lat="45.55580299818459" lon="10.40661924116625"><ele>194.85714285714286</ele><time>2026-04-18T08:55:47Z</time></trkpt><trkpt lat="45.55575671643785" lon="10.406547838535472"><ele>193.57142857142856</ele><time>2026-04-18T08:55:48Z</time></trkpt><trkpt lat="45.55570506244718" lon="10.406491109877747"><ele>192.2857142857143</ele><time>2026-04-18T08:55:49Z</time></trkpt><trkpt lat="45.55564689174346" lon="10.406446103918638"><ele>191.0</ele><time>2026-04-18T08:55:50Z</time></trkpt><trkpt lat="45.55558720327746" lon="10.406408283292043"><ele>191.0</ele><time>2026-04-18T08:55:51Z</time></trkpt><trkpt lat="45.55553706754637" lon="10.406351026949487"><ele>191.0</ele><time>2026-04-18T08:55:52Z</time></trkpt><trkpt lat="45.55548607823528" lon="10.406283260043587"><ele>191.0</ele><time>2026-04-18T08:55:53Z</time></trkpt><trkpt lat="45.55543119920022" lon="10.40621824937784"><ele>191.0</ele><time>2026-04-18T08:55:54Z</time></trkpt><trkpt lat="45.55538152270501" lon="10.406153601176221"><ele>191.0</ele><time>2026-04-18T08:55:55Z</time></trkpt><trkpt lat="45.55532776361666" lon="10.406085455440714"><ele>191.0</ele><time>2026-04-18T08:55:56Z</time></trkpt><trkpt lat="45.55526699813422" lon="10.406030820676236"><ele>191.0</ele><time>2026-04-18T08:55:57Z</time></trkpt><trkpt lat="45.55520686985185" lon="10.405977916120337"><ele>190.2857142857143</ele><time>2026-04-18T08:55:58Z</time></trkpt><trkpt lat="45.555141712577175" lon="10.40594993229994"><ele>189.57142857142856</ele><time>2026-04-18T08:55:59Z</time></trkpt><trkpt lat="45.55507509797358" lon="10.405924714402676"><ele>188.85714285714286</ele><time>2026-04-18T08:56:00Z</time></trkpt><trkpt lat="45.55501198644207" lon="10.405897307960917"><ele>188.14285714285717</ele><time>2026-04-18T08:56:01Z</time></trkpt><trkpt lat="45.55495407677592" lon="10.40585765773033"><ele>187.42857142857144</ele><time>2026-04-18T08:56:02Z</time></trkpt><trkpt lat="45.554891173622806" lon="10.405823050559038"><ele>186.71428571428572</ele><time>2026-04-18T08:56:03Z</time></trkpt><trkpt lat="45.55483725864446" lon="10.405763794343848"><ele>186.0</ele><time>2026-04-18T08:56:04Z</time></trkpt><trkpt lat="45.55480333513803" lon="10.405684064627334"><ele>186.0</ele><time>2026-04-18T08:56:05Z</time></trkpt><trkpt lat="45.55477682323602" lon="10.405595985514719"><ele>186.0</ele><time>2026-04-18T08:56:06Z</time></trkpt><trkpt lat="45.55475868533182" lon="10.4054995039559"><ele>186.0</ele><time>2026-04-18T08:56:07Z</time></trkpt><trkpt lat="45.554727715448024" lon="10.405321903391508"><ele>186.0</ele><time>2026-04-18T08:56:09Z</time></trkpt><trkpt lat="45.55470948729305" lon="10.405231778894777"><ele>186.0</ele><time>2026-04-18T08:56:10Z</time></trkpt><trkpt lat="45.554686194833955" lon="10.40514670009522"><ele>186.0</ele><time>2026-04-18T08:56:11Z</time></trkpt><trkpt lat="45.55466882141934" lon="10.405059305762833"><ele>186.5</ele><time>2026-04-18T08:56:12Z</time></trkpt><trkpt lat="45.554646436805584" lon="10.404972749670652"><ele>187.0</ele><time>2026-04-18T08:56:13Z</time></trkpt><trkpt lat="45.55463522884177" lon="10.40488305130316"><ele>187.5</ele><time>2026-04-18T08:56:14Z</time></trkpt><trkpt lat="45.554613776838394" lon="10.404797484574733"><ele>188.0</ele><time>2026-04-18T08:56:15Z</time></trkpt><trkpt lat="45.5545714089195" lon="10.404626665484187"><ele>188.5</ele><time>2026-04-18T08:56:17Z</time></trkpt><trkpt lat="45.55453524943939" lon="10.404454136435604"><ele>189.0</ele><time>2026-04-18T08:56:19Z</time></trkpt><trkpt lat="45.55449809165176" lon="10.404282512194442"><ele>189.0</ele><time>2026-04-18T08:56:21Z</time></trkpt><trkpt lat="45.554475833007125" lon="10.404198234006012"><ele>189.0</ele><time>2026-04-18T08:56:22Z</time></trkpt><trkpt lat="45.55444739892143" lon="10.404115059329197"><ele>189.0</ele><time>2026-04-18T08:56:23Z</time></trkpt><trkpt lat="45.55440142659711" lon="10.403947041579924"><ele>189.0</ele><time>2026-04-18T08:56:25Z</time></trkpt><trkpt lat="45.55435252288286" lon="10.403810068468017"><ele>189.0</ele><time>2026-04-18T08:56:27Z</time></trkpt><trkpt lat="45.55429077494691" lon="10.403672138314436"><ele>189.83333333333334</ele><time>2026-04-18T08:56:29Z</time></trkpt><trkpt lat="45.554234128578436" lon="10.40351076797793"><ele>190.66666666666669</ele><time>2026-04-18T08:56:31Z</time></trkpt><trkpt lat="45.55419781501456" lon="10.403427838774205"><ele>191.5</ele><time>2026-04-18T08:56:32Z</time></trkpt><trkpt lat="45.55415889979954" lon="10.403344544446915"><ele>192.33333333333334</ele><time>2026-04-18T08:56:33Z</time></trkpt><trkpt lat="45.55411560808769" lon="10.403260008598208"><ele>193.16666666666669</ele><time>2026-04-18T08:56:34Z</time></trkpt><trkpt lat="45.55407461942463" lon="10.403183386100014"><ele>194.0</ele><time>2026-04-18T08:56:35Z</time></trkpt><trkpt lat="45.554032141581665" lon="10.403103979789902"><ele>194.00000000000003</ele><time>2026-04-18T08:56:36Z</time></trkpt><trkpt lat="45.55398349393513" lon="10.403013039915606"><ele>194.0</ele><time>2026-04-18T08:56:37Z</time></trkpt><trkpt lat="45.55393927297438" lon="10.402924906924456"><ele>194.0</ele><time>2026-04-18T08:56:38Z</time></trkpt><trkpt lat="45.55389768446096" lon="10.402838465659151"><ele>194.0</ele><time>2026-04-18T08:56:39Z</time></trkpt><trkpt lat="45.55385452779048" lon="10.402748764880178"><ele>194.00000000000003</ele><time>2026-04-18T08:56:40Z</time></trkpt><trkpt lat="45.553812564033926" lon="10.402660451004005"><ele>194.0</ele><time>2026-04-18T08:56:41Z</time></trkpt><trkpt lat="45.553754957959754" lon="10.402580955141618"><ele>193.00000000000003</ele><time>2026-04-18T08:56:42Z</time></trkpt><trkpt lat="45.55372353249958" lon="10.402473729687586"><ele>192.0</ele><time>2026-04-18T08:56:43Z</time></trkpt><trkpt lat="45.5536735515493" lon="10.402386002841792"><ele>191.0</ele><time>2026-04-18T08:56:44Z</time></trkpt><trkpt lat="45.55363047629685" lon="10.402287178706015"><ele>190.0</ele><time>2026-04-18T08:56:45Z</time></trkpt><trkpt lat="45.553596765437185" lon="10.402183833619238"><ele>189.0</ele><time>2026-04-18T08:56:46Z</time></trkpt><trkpt lat="45.55356915739405" lon="10.40207303119929"><ele>188.0</ele><time>2026-04-18T08:56:47Z</time></trkpt><trkpt lat="45.55353465804784" lon="10.401968288198605"><ele>188.0</ele><time>2026-04-18T08:56:48Z</time></trkpt><trkpt lat="45.55349891386809" lon="10.401862370434468"><ele>188.0</ele><time>2026-04-18T08:56:49Z</time></trkpt><trkpt lat="45.553453612762034" lon="10.401760559670965"><ele>188.0</ele><time>2026-04-18T08:56:50Z</time></trkpt><trkpt lat="45.55342915493297" lon="10.401644656341238"><ele>188.0</ele><time>2026-04-18T08:56:51Z</time></trkpt><trkpt lat="45.55338677108576" lon="10.401550580510802"><ele>188.0</ele><time>2026-04-18T08:56:52Z</time></trkpt><trkpt lat="45.553342711855954" lon="10.401459974994093"><ele>188.0</ele><time>2026-04-18T08:56:53Z</time></trkpt><trkpt lat="45.553289322420696" lon="10.401399402117496"><ele>187.8</ele><time>2026-04-18T08:56:54Z</time></trkpt><trkpt lat="45.55324871762476" lon="10.401301930588282"><ele>187.60000000000002</ele><time>2026-04-18T08:56:56Z</time></trkpt><trkpt lat="45.55318182025879" lon="10.401217742271239"><ele>187.39999999999998</ele><time>2026-04-18T08:56:58Z</time></trkpt><trkpt lat="45.55314662286149" lon="10.4010771127225"><ele>187.2</ele><time>2026-04-18T08:57:00Z</time></trkpt><trkpt lat="45.553089560869914" lon="10.40093100467149"><ele>187.0</ele><time>2026-04-18T08:57:02Z</time></trkpt><trkpt lat="45.55305182024639" lon="10.400854185777856"><ele>187.0</ele><time>2026-04-18T08:57:03Z</time></trkpt><trkpt lat="45.55302264545368" lon="10.400772153443084"><ele>187.0</ele><time>2026-04-18T08:57:04Z</time></trkpt><trkpt lat="45.5530108778452" lon="10.40067610346915"><ele>187.0</ele><time>2026-04-18T08:57:05Z</time></trkpt><trkpt lat="45.552982464111395" lon="10.40059269609487"><ele>187.0</ele><time>2026-04-18T08:57:06Z</time></trkpt><trkpt lat="45.55291628352555" lon="10.400526529208092"><ele>187.0</ele><time>2026-04-18T08:57:07Z</time></trkpt><trkpt lat="45.55287071060759" lon="10.400447104701943"><ele>187.0</ele><time>2026-04-18T08:57:08Z</time></trkpt><trkpt lat="45.55282205823029" lon="10.400368758841317"><ele>187.0</ele><time>2026-04-18T08:57:09Z</time></trkpt><trkpt lat="45.55278200977333" lon="10.400293814391823"><ele>186.16666666666669</ele><time>2026-04-18T08:57:10Z</time></trkpt><trkpt lat="45.552737283206305" lon="10.40021746952289"><ele>185.33333333333334</ele><time>2026-04-18T08:57:11Z</time></trkpt><trkpt lat="45.55268802385426" lon="10.400144732768487"><ele>184.5</ele><time>2026-04-18T08:57:12Z</time></trkpt><trkpt lat="45.55262021692455" lon="10.400059779771619"><ele>183.66666666666666</ele><time>2026-04-18T08:57:14Z</time></trkpt><trkpt lat="45.552580703832405" lon="10.39996855943272"><ele>182.83333333333331</ele><time>2026-04-18T08:57:16Z</time></trkpt><trkpt lat="45.55252416089621" lon="10.399879870978788"><ele>182.0</ele><time>2026-04-18T08:57:19Z</time></trkpt><trkpt lat="45.55245980860159" lon="10.399804479239599"><ele>182.5</ele><time>2026-04-18T08:57:21Z</time></trkpt><trkpt lat="45.552377133447486" lon="10.399627233002112"><ele>183.0</ele><time>2026-04-18T08:57:22Z</time></trkpt><trkpt lat="45.55238019466769" lon="10.39947311309046"><ele>183.5</ele><time>2026-04-18T08:57:24Z</time></trkpt><trkpt lat="45.55237333757725" lon="10.399302662028983"><ele>184.0</ele><time>2026-04-18T08:57:26Z</time></trkpt><trkpt lat="45.55243849243153" lon="10.399145821676731"><ele>184.0</ele><time>2026-04-18T08:57:28Z</time></trkpt><trkpt lat="45.55249403952149" lon="10.399099156197249"><ele>184.0</ele><time>2026-04-18T08:57:29Z</time></trkpt><trkpt lat="45.55254593027205" lon="10.399045435686345"><ele>184.0</ele><time>2026-04-18T08:57:30Z</time></trkpt><trkpt lat="45.55267135311496" lon="10.398983772101692"><ele>184.0</ele><time>2026-04-18T08:57:32Z</time></trkpt><trkpt lat="45.552730088998416" lon="10.398937795417927"><ele>184.0</ele><time>2026-04-18T08:57:33Z</time></trkpt><trkpt lat="45.55284623125832" lon="10.39887282753845"><ele>184.39999999999998</ele><time>2026-04-18T08:57:35Z</time></trkpt><trkpt lat="45.55295988712508" lon="10.398824805064875"><ele>184.8</ele><time>2026-04-18T08:57:37Z</time></trkpt><trkpt lat="45.55307208141068" lon="10.398772688310308"><ele>185.2</ele><time>2026-04-18T08:57:39Z</time></trkpt><trkpt lat="45.55318934862213" lon="10.398730158988785"><ele>185.60000000000002</ele><time>2026-04-18T08:57:41Z</time></trkpt><trkpt lat="45.553253283642505" lon="10.398743188753706"><ele>186.0</ele><time>2026-04-18T08:57:42Z</time></trkpt><trkpt lat="45.55330982665739" lon="10.39878458534864"><ele>185.5</ele><time>2026-04-18T08:57:43Z</time></trkpt><trkpt lat="45.5534067615185" lon="10.398917427471478"><ele>185.0</ele><time>2026-04-18T08:57:45Z</time></trkpt><trkpt lat="45.55348772606236" lon="10.398998598757014"><ele>184.5</ele><time>2026-04-18T08:57:47Z</time></trkpt><trkpt lat="45.553593040044646" lon="10.399063547561937"><ele>184.0</ele><time>2026-04-18T08:57:49Z</time></trkpt><trkpt lat="45.55370038757208" lon="10.399109890062743"><ele>184.0</ele><time>2026-04-18T08:57:51Z</time></trkpt><trkpt lat="45.55376955118123" lon="10.399132704809512"><ele>184.0</ele><time>2026-04-18T08:57:53Z</time></trkpt><trkpt lat="45.55387644347496" lon="10.399183171629126"><ele>184.0</ele><time>2026-04-18T08:57:55Z</time></trkpt><trkpt lat="45.55393552545209" lon="10.399229577649841"><ele>184.0</ele><time>2026-04-18T08:57:56Z</time></trkpt><trkpt lat="45.554022849401065" lon="10.399278461042616"><ele>184.0</ele><time>2026-04-18T08:57:58Z</time></trkpt><trkpt lat="45.55412380885778" lon="10.399338957480014"><ele>184.0</ele><time>2026-04-18T08:58:00Z</time></trkpt><trkpt lat="45.55420984050634" lon="10.399410069253017"><ele>184.0</ele><time>2026-04-18T08:58:02Z</time></trkpt><trkpt lat="45.554299041582304" lon="10.399456502826785"><ele>184.0</ele><time>2026-04-18T08:58:04Z</time></trkpt><trkpt lat="45.554391164269234" lon="10.399529947555594"><ele>184.0</ele><time>2026-04-18T08:58:06Z</time></trkpt><trkpt lat="45.55445955993542" lon="10.399580713156576"><ele>184.0</ele><time>2026-04-18T08:58:08Z</time></trkpt><trkpt lat="45.55451815140456" lon="10.399627773808408"><ele>184.0</ele><time>2026-04-18T08:58:10Z</time></trkpt><trkpt lat="45.55455021093898" lon="10.399749533148967"><ele>185.66666666666669</ele><time>2026-04-18T08:58:13Z</time></trkpt><trkpt lat="45.55453694099053" lon="10.399866959751565"><ele>187.33333333333334</ele><time>2026-04-18T08:58:16Z</time></trkpt><trkpt lat="45.55458966657955" lon="10.39995689477747"><ele>189.0</ele><time>2026-04-18T08:58:17Z</time></trkpt><trkpt lat="45.554641265903584" lon="10.400047566938294"><ele>190.66666666666669</ele><time>2026-04-18T08:58:19Z</time></trkpt><trkpt lat="45.554693744294795" lon="10.400111858666463"><ele>192.33333333333334</ele><time>2026-04-18T08:58:21Z</time></trkpt><trkpt lat="45.55476441866147" lon="10.400157989228472"><ele>194.0</ele><time>2026-04-18T08:58:24Z</time></trkpt><trkpt lat="45.554828676635985" lon="10.400187355009454"><ele>194.33333333333334</ele><time>2026-04-18T08:58:27Z</time></trkpt><trkpt lat="45.55490909029196" lon="10.400146483648545"><ele>194.66666666666669</ele><time>2026-04-18T08:58:30Z</time></trkpt><trkpt lat="45.55499158532228" lon="10.400136605462308"><ele>195.0</ele><time>2026-04-18T08:58:33Z</time></trkpt><trkpt lat="45.55505868273197" lon="10.400140256362414"><ele>195.33333333333331</ele><time>2026-04-18T08:58:36Z</time></trkpt><trkpt lat="45.555130382603" lon="10.400129280888207"><ele>195.66666666666666</ele><time>2026-04-18T08:58:39Z</time></trkpt><trkpt lat="45.55520406747592" lon="10.400136128992864"><ele>196.0</ele><time>2026-04-18T08:58:43Z</time></trkpt><trkpt lat="45.555287620081145" lon="10.40014503339409"><ele>196.0</ele><time>2026-04-18T08:58:47Z</time></trkpt><trkpt lat="45.55535285563793" lon="10.400158280061492"><ele>196.0</ele><time>2026-04-18T08:58:51Z</time></trkpt><trkpt lat="45.55541118608005" lon="10.400197533990127"><ele>196.0</ele><time>2026-04-18T08:58:54Z</time></trkpt><trkpt lat="45.555478814748874" lon="10.400206315119108"><ele>196.0</ele><time>2026-04-18T08:58:58Z</time></trkpt><trkpt lat="45.55555008641044" lon="10.400207747292956"><ele>196.0</ele><time>2026-04-18T08:59:02Z</time></trkpt><trkpt lat="45.55563168299693" lon="10.400209473293025"><ele>196.0</ele><time>2026-04-18T08:59:07Z</time></trkpt><trkpt lat="45.55570235515829" lon="10.400208513975358"><ele>196.0</ele><time>2026-04-18T08:59:11Z</time></trkpt><trkpt lat="45.55575996007678" lon="10.40024507350771"><ele>196.33333333333331</ele><time>2026-04-18T08:59:15Z</time></trkpt><trkpt lat="45.55584501905434" lon="10.40025480795639"><ele>196.66666666666666</ele><time>2026-04-18T08:59:19Z</time></trkpt><trkpt lat="45.55591744322392" lon="10.40029285408248"><ele>197.0</ele><time>2026-04-18T08:59:23Z</time></trkpt><trkpt lat="45.55600299746388" lon="10.400292107195993"><ele>197.33333333333331</ele><time>2026-04-18T08:59:29Z</time></trkpt><trkpt lat="45.55606671798073" lon="10.400348789145328"><ele>197.66666666666666</ele><time>2026-04-18T08:59:33Z</time></trkpt><trkpt lat="45.55613156422676" lon="10.400340637349752"><ele>198.0</ele><time>2026-04-18T08:59:37Z</time></trkpt><trkpt lat="45.55620379553327" lon="10.400362001079882"><ele>199.71428571428572</ele><time>2026-04-18T08:59:42Z</time></trkpt><trkpt lat="45.55627867104605" lon="10.400377170876482"><ele>201.42857142857142</ele><time>2026-04-18T08:59:47Z</time></trkpt><trkpt lat="45.55635329949519" lon="10.400389920424205"><ele>203.14285714285714</ele><time>2026-04-18T08:59:52Z</time></trkpt><trkpt lat="45.55643696093738" lon="10.400403091185733"><ele>204.85714285714286</ele><time>2026-04-18T08:59:58Z</time></trkpt><trkpt lat="45.556501893247805" lon="10.400403190233977"><ele>206.57142857142856</ele><time>2026-04-18T09:00:02Z</time></trkpt><trkpt lat="45.55657898854728" lon="10.400431151443236"><ele>208.28571428571428</ele><time>2026-04-18T09:00:07Z</time></trkpt><trkpt lat="45.55664120842274" lon="10.400447054721646"><ele>210.0</ele><time>2026-04-18T09:00:11Z</time></trkpt><trkpt lat="45.55671560263818" lon="10.400458117545"><ele>210.0</ele><time>2026-04-18T09:00:15Z</time></trkpt><trkpt lat="45.55679969503102" lon="10.40048248434178"><ele>210.0</ele><time>2026-04-18T09:00:19Z</time></trkpt><trkpt lat="45.556870168079755" lon="10.40048598974797"><ele>210.0</ele><time>2026-04-18T09:00:23Z</time></trkpt><trkpt lat="45.556937276600195" lon="10.400508299852609"><ele>210.0</ele><time>2026-04-18T09:00:27Z</time></trkpt><trkpt lat="45.557082727743854" lon="10.400442130376145"><ele>210.0</ele><time>2026-04-18T09:03:13Z</time></trkpt><trkpt lat="45.55709140814282" lon="10.40032911844263"><ele>210.0</ele><time>2026-04-18T09:03:16Z</time></trkpt><trkpt lat="45.55705442876091" lon="10.400242246746211"><ele>210.0</ele><time>2026-04-18T09:03:19Z</time></trkpt><trkpt lat="45.55701079460427" lon="10.400166766120943"><ele>210.0</ele><time>2026-04-18T09:03:22Z</time></trkpt><trkpt lat="45.55696898811339" lon="10.400091011299303"><ele>210.0</ele><time>2026-04-18T09:03:25Z</time></trkpt><trkpt lat="45.55696523850222" lon="10.399976568787961"><ele>210.0</ele><time>2026-04-18T09:03:28Z</time></trkpt><trkpt lat="45.55698347687052" lon="10.39985313739247"><ele>210.0</ele><time>2026-04-18T09:03:31Z</time></trkpt><trkpt lat="45.557003767608464" lon="10.399758520886548"><ele>210.0</ele><time>2026-04-18T09:03:34Z</time></trkpt><trkpt lat="45.55702334433856" lon="10.399661815769502"><ele>213.33333333333334</ele><time>2026-04-18T09:03:37Z</time></trkpt><trkpt lat="45.557074758002294" lon="10.399602358576997"><ele>216.66666666666669</ele><time>2026-04-18T09:03:40Z</time></trkpt><trkpt lat="45.557126962314626" lon="10.399551087081658"><ele>220.0</ele><time>2026-04-18T09:03:43Z</time></trkpt><trkpt lat="45.55719447626079" lon="10.399481353266687"><ele>223.33333333333334</ele><time>2026-04-18T09:03:46Z</time></trkpt><trkpt lat="45.55726604011274" lon="10.399397857481105"><ele>226.66666666666669</ele><time>2026-04-18T09:03:50Z</time></trkpt><trkpt lat="45.55732918888487" lon="10.399336020185583"><ele>230.0</ele><time>2026-04-18T09:03:54Z</time></trkpt><trkpt lat="45.5574029708287" lon="10.399276115007199"><ele>229.99999999999997</ele><time>2026-04-18T09:03:57Z</time></trkpt><trkpt lat="45.55746182355747" lon="10.399206118191419"><ele>230.0</ele><time>2026-04-18T09:04:00Z</time></trkpt><trkpt lat="45.55750563576449" lon="10.399109040694896"><ele>229.99999999999997</ele><time>2026-04-18T09:04:03Z</time></trkpt><trkpt lat="45.55756311897246" lon="10.399047560809443"><ele>229.99999999999997</ele><time>2026-04-18T09:04:06Z</time></trkpt><trkpt lat="45.55760649370764" lon="10.398977025558418"><ele>230.0</ele><time>2026-04-18T09:04:09Z</time></trkpt><trkpt lat="45.55763988983669" lon="10.3988894251108"><ele>229.99999999999997</ele><time>2026-04-18T09:04:13Z</time></trkpt><trkpt lat="45.557675431198795" lon="10.398808990180367"><ele>229.99999999999997</ele><time>2026-04-18T09:04:17Z</time></trkpt><trkpt lat="45.557708941080485" lon="10.398725089235965"><ele>227.99999999999997</ele><time>2026-04-18T09:04:21Z</time></trkpt><trkpt lat="45.557764916117144" lon="10.39865951549561"><ele>226.0</ele><time>2026-04-18T09:04:25Z</time></trkpt><trkpt lat="45.55782185401297" lon="10.398597418011887"><ele>224.0</ele><time>2026-04-18T09:04:29Z</time></trkpt><trkpt lat="45.55788079891098" lon="10.398512687604388"><ele>222.0</ele><time>2026-04-18T09:04:33Z</time></trkpt><trkpt lat="45.55792967379327" lon="10.398434955395073"><ele>220.0</ele><time>2026-04-18T09:04:37Z</time></trkpt><trkpt lat="45.557985650348826" lon="10.398367225112537"><ele>218.0</ele><time>2026-04-18T09:04:40Z</time></trkpt><trkpt lat="45.558036661620775" lon="10.398308908449199"><ele>216.0</ele><time>2026-04-18T09:04:44Z</time></trkpt><trkpt lat="45.55808849877249" lon="10.398226160095069"><ele>217.85714285714286</ele><time>2026-04-18T09:04:48Z</time></trkpt><trkpt lat="45.558153883560855" lon="10.398156704104926"><ele>219.71428571428572</ele><time>2026-04-18T09:04:52Z</time></trkpt><trkpt lat="45.55820595969064" lon="10.398083238357923"><ele>221.57142857142856</ele><time>2026-04-18T09:04:56Z</time></trkpt><trkpt lat="45.55824822741013" lon="10.398007340083451"><ele>223.42857142857144</ele><time>2026-04-18T09:05:00Z</time></trkpt><trkpt lat="45.558302120435094" lon="10.397915022391455"><ele>225.2857142857143</ele><time>2026-04-18T09:05:04Z</time></trkpt><trkpt lat="45.558343260043934" lon="10.397846621756086"><ele>227.14285714285714</ele><time>2026-04-18T09:05:07Z</time></trkpt><trkpt lat="45.55839005826105" lon="10.397776862036684"><ele>229.0</ele><time>2026-04-18T09:05:10Z</time></trkpt><trkpt lat="45.558448099039985" lon="10.397700237770067"><ele>229.0</ele><time>2026-04-18T09:05:14Z</time></trkpt><trkpt lat="45.55850393459077" lon="10.39761807122254"><ele>229.0</ele><time>2026-04-18T09:05:18Z</time></trkpt><trkpt lat="45.55854611914234" lon="10.397542138951508"><ele>229.0</ele><time>2026-04-18T09:05:21Z</time></trkpt><trkpt lat="45.55859409011068" lon="10.397470675343017"><ele>229.0</ele><time>2026-04-18T09:05:25Z</time></trkpt><trkpt lat="45.5586511130558" lon="10.39739776569076"><ele>229.0</ele><time>2026-04-18T09:05:29Z</time></trkpt><trkpt lat="45.558701364338106" lon="10.397339635067182"><ele>229.0</ele><time>2026-04-18T09:05:32Z</time></trkpt><trkpt lat="45.55874423255771" lon="10.397262405027416"><ele>229.0</ele><time>2026-04-18T09:05:35Z</time></trkpt><trkpt lat="45.558793421235436" lon="10.397196609142183"><ele>232.42857142857142</ele><time>2026-04-18T09:05:38Z</time></trkpt><trkpt lat="45.558832490213426" lon="10.397115516559417"><ele>235.8571428571429</ele><time>2026-04-18T09:05:41Z</time></trkpt><trkpt lat="45.55887856355756" lon="10.397040621752003"><ele>239.2857142857143</ele><time>2026-04-18T09:05:44Z</time></trkpt><trkpt lat="45.55892390716833" lon="10.396958609443148"><ele>242.71428571428572</ele><time>2026-04-18T09:05:47Z</time></trkpt><trkpt lat="45.55896482512739" lon="10.396886490388463"><ele>246.14285714285717</ele><time>2026-04-18T09:05:50Z</time></trkpt><trkpt lat="45.559012931649555" lon="10.39681582395155"><ele>249.5714285714286</ele><time>2026-04-18T09:05:53Z</time></trkpt><trkpt lat="45.55906643657918" lon="10.39674639031912"><ele>253.00000000000003</ele><time>2026-04-18T09:05:57Z</time></trkpt><trkpt lat="45.55909645052527" lon="10.396642614753812"><ele>253.00000000000003</ele><time>2026-04-18T09:06:00Z</time></trkpt><trkpt lat="45.559129184048025" lon="10.39656474380513"><ele>253.0</ele><time>2026-04-18T09:06:04Z</time></trkpt><trkpt lat="45.55915098876347" lon="10.396475459039088"><ele>253.00000000000003</ele><time>2026-04-18T09:06:07Z</time></trkpt><trkpt lat="45.55918991007898" lon="10.396383133507895"><ele>253.00000000000003</ele><time>2026-04-18T09:06:10Z</time></trkpt><trkpt lat="45.55921917311766" lon="10.3962932643899"><ele>253.0</ele><time>2026-04-18T09:06:13Z</time></trkpt><trkpt lat="45.55924671035996" lon="10.396182328512706"><ele>253.00000000000003</ele><time>2026-04-18T09:06:17Z</time></trkpt><trkpt lat="45.559272749180295" lon="10.396084204082493"><ele>253.00000000000003</ele><time>2026-04-18T09:06:21Z</time></trkpt><trkpt lat="45.559292602408384" lon="10.395988232834078"><ele>252.8571428571429</ele><time>2026-04-18T09:06:24Z</time></trkpt><trkpt lat="45.55931998475129" lon="10.395899456012565"><ele>252.71428571428572</ele><time>2026-04-18T09:06:27Z</time></trkpt><trkpt lat="45.55934374213602" lon="10.3958065909983"><ele>252.57142857142858</ele><time>2026-04-18T09:06:30Z</time></trkpt><trkpt lat="45.55934422797793" lon="10.395712889129436"><ele>252.42857142857144</ele><time>2026-04-18T09:06:33Z</time></trkpt><trkpt lat="45.55934732985725" lon="10.395622736965823"><ele>252.28571428571428</ele><time>2026-04-18T09:06:36Z</time></trkpt><trkpt lat="45.55935448560354" lon="10.395525112295557"><ele>252.14285714285714</ele><time>2026-04-18T09:06:39Z</time></trkpt><trkpt lat="45.55935361104406" lon="10.395419512485244"><ele>252.0</ele><time>2026-04-18T09:06:42Z</time></trkpt><trkpt lat="45.55934874269414" lon="10.395304716226232"><ele>252.0</ele><time>2026-04-18T09:06:46Z</time></trkpt><trkpt lat="45.55935152124535" lon="10.395193843234459"><ele>252.0</ele><time>2026-04-18T09:06:50Z</time></trkpt><trkpt lat="45.55932692210974" lon="10.395107808160695"><ele>252.0</ele><time>2026-04-18T09:06:54Z</time></trkpt><trkpt lat="45.55929738709546" lon="10.395010857114722"><ele>252.0</ele><time>2026-04-18T09:06:57Z</time></trkpt><trkpt lat="45.55926397701537" lon="10.394921859228576"><ele>252.0</ele><time>2026-04-18T09:07:00Z</time></trkpt><trkpt lat="45.55924434544252" lon="10.394822033645921"><ele>252.0</ele><time>2026-04-18T09:07:03Z</time></trkpt><trkpt lat="45.559237268029456" lon="10.394729553326183"><ele>252.0</ele><time>2026-04-18T09:07:06Z</time></trkpt><trkpt lat="45.55922311009468" lon="10.394640145662391"><ele>254.16666666666666</ele><time>2026-04-18T09:07:09Z</time></trkpt><trkpt lat="45.55919532508055" lon="10.394555146123968"><ele>256.3333333333333</ele><time>2026-04-18T09:07:12Z</time></trkpt><trkpt lat="45.55919021200413" lon="10.394454459483018"><ele>258.5</ele><time>2026-04-18T09:07:15Z</time></trkpt><trkpt lat="45.5591543808804" lon="10.39434456869879"><ele>260.66666666666663</ele><time>2026-04-18T09:07:18Z</time></trkpt><trkpt lat="45.55912266451097" lon="10.394233240609747"><ele>262.8333333333333</ele><time>2026-04-18T09:07:22Z</time></trkpt><trkpt lat="45.559060709320974" lon="10.394144685830183"><ele>265.0</ele><time>2026-04-18T09:07:25Z</time></trkpt><trkpt lat="45.55903733716008" lon="10.394057695467913"><ele>265.0</ele><time>2026-04-18T09:07:27Z</time></trkpt><trkpt lat="45.55899053137685" lon="10.393942039191382"><ele>265.0</ele><time>2026-04-18T09:07:30Z</time></trkpt><trkpt lat="45.55895314071364" lon="10.39382886812797"><ele>265.0</ele><time>2026-04-18T09:07:33Z</time></trkpt><trkpt lat="45.5589122663707" lon="10.393740151683364"><ele>265.0</ele><time>2026-04-18T09:07:35Z</time></trkpt><trkpt lat="45.55888075520712" lon="10.393653334528993"><ele>265.0</ele><time>2026-04-18T09:07:37Z</time></trkpt><trkpt lat="45.55885074513204" lon="10.393536574331927"><ele>265.0</ele><time>2026-04-18T09:07:40Z</time></trkpt><trkpt lat="45.55881951781473" lon="10.393419714657526"><ele>267.16666666666663</ele><time>2026-04-18T09:07:43Z</time></trkpt><trkpt lat="45.558809742436566" lon="10.39332444593392"><ele>269.3333333333333</ele><time>2026-04-18T09:07:46Z</time></trkpt><trkpt lat="45.55882105248963" lon="10.39321437345942"><ele>271.5</ele><time>2026-04-18T09:07:49Z</time></trkpt><trkpt lat="45.558820463243194" lon="10.393107057682103"><ele>273.6666666666667</ele><time>2026-04-18T09:07:52Z</time></trkpt><trkpt lat="45.5588410959578" lon="10.393004805181"><ele>275.83333333333337</ele><time>2026-04-18T09:07:55Z</time></trkpt><trkpt lat="45.55885634857108" lon="10.392887721858925"><ele>278.0</ele><time>2026-04-18T09:07:58Z</time></trkpt><trkpt lat="45.558862670946084" lon="10.39275101633782"><ele>279.0</ele><time>2026-04-18T09:08:01Z</time></trkpt><trkpt lat="45.558862769350576" lon="10.392645187289917"><ele>280.0</ele><time>2026-04-18T09:08:04Z</time></trkpt><trkpt lat="45.5588837884092" lon="10.392532862413214"><ele>281.0</ele><time>2026-04-18T09:08:06Z</time></trkpt><trkpt lat="45.55889980072628" lon="10.392443660451393"><ele>282.0</ele><time>2026-04-18T09:08:08Z</time></trkpt><trkpt lat="45.55890561683929" lon="10.392352048058289"><ele>283.0</ele><time>2026-04-18T09:08:10Z</time></trkpt><trkpt lat="45.55890998442835" lon="10.39222844188033"><ele>284.0</ele><time>2026-04-18T09:08:13Z</time></trkpt><trkpt lat="45.55891559160245" lon="10.39210241658347"><ele>284.0</ele><time>2026-04-18T09:08:16Z</time></trkpt><trkpt lat="45.558930753550854" lon="10.391972304013532"><ele>284.0</ele><time>2026-04-18T09:08:19Z</time></trkpt><trkpt lat="45.55893801365105" lon="10.39186974071308"><ele>284.0</ele><time>2026-04-18T09:08:22Z</time></trkpt><trkpt lat="45.55894428962284" lon="10.391748621275935"><ele>284.0</ele><time>2026-04-18T09:08:25Z</time></trkpt><trkpt lat="45.558944894042725" lon="10.391643019877316"><ele>284.0</ele><time>2026-04-18T09:08:27Z</time></trkpt><trkpt lat="45.55895335620609" lon="10.391541281288344"><ele>284.0</ele><time>2026-04-18T09:08:30Z</time></trkpt><trkpt lat="45.55896123082706" lon="10.391430409476751"><ele>284.0</ele><time>2026-04-18T09:08:33Z</time></trkpt><trkpt lat="45.55897291490126" lon="10.391308944929346"><ele>284.0</ele><time>2026-04-18T09:08:36Z</time></trkpt><trkpt lat="45.55896307172469" lon="10.391201701647866"><ele>284.0</ele><time>2026-04-18T09:08:39Z</time></trkpt><trkpt lat="45.558957394616854" lon="10.39110671045327"><ele>284.0</ele><time>2026-04-18T09:08:42Z</time></trkpt><trkpt lat="45.55898302960626" lon="10.391174205853009"><ele>284.0</ele><time>2026-04-18T09:13:56Z</time></trkpt><trkpt lat="45.55898518575404" lon="10.391286608938511"><ele>284.0</ele><time>2026-04-18T09:13:58Z</time></trkpt><trkpt lat="45.55895835400281" lon="10.391416657373247"><ele>284.0</ele><time>2026-04-18T09:14:00Z</time></trkpt><trkpt lat="45.55894051308186" lon="10.391593903656013"><ele>284.0</ele><time>2026-04-18T09:14:02Z</time></trkpt><trkpt lat="45.55893891549895" lon="10.391696880182549"><ele>284.0</ele><time>2026-04-18T09:14:03Z</time></trkpt><trkpt lat="45.55893763501255" lon="10.391799033312523"><ele>284.0</ele><time>2026-04-18T09:14:04Z</time></trkpt><trkpt lat="45.558936920387595" lon="10.391915034193717"><ele>284.0</ele><time>2026-04-18T09:14:05Z</time></trkpt><trkpt lat="45.55893513053685" lon="10.39203481184737"><ele>284.0</ele><time>2026-04-18T09:14:06Z</time></trkpt><trkpt lat="45.55892515931143" lon="10.392162869732264"><ele>284.2</ele><time>2026-04-18T09:14:07Z</time></trkpt><trkpt lat="45.55891783028266" lon="10.392288258758937"><ele>284.4</ele><time>2026-04-18T09:14:08Z</time></trkpt><trkpt lat="45.55889869526382" lon="10.392445246803424"><ele>284.6</ele><time>2026-04-18T09:14:09Z</time></trkpt><trkpt lat="45.55888749294127" lon="10.392580156558251"><ele>284.8</ele><time>2026-04-18T09:14:10Z</time></trkpt><trkpt lat="45.55888284662884" lon="10.392724767182699"><ele>285.0</ele><time>2026-04-18T09:14:11Z</time></trkpt><trkpt lat="45.558865498772064" lon="10.392864159737174"><ele>285.0</ele><time>2026-04-18T09:14:12Z</time></trkpt><trkpt lat="45.558840745426075" lon="10.392990501801457"><ele>285.0</ele><time>2026-04-18T09:14:13Z</time></trkpt><trkpt lat="45.5588362646858" lon="10.393123677629267"><ele>285.0</ele><time>2026-04-18T09:14:14Z</time></trkpt><trkpt lat="45.558828439762316" lon="10.393246785417421"><ele>285.0</ele><time>2026-04-18T09:14:15Z</time></trkpt><trkpt lat="45.558824064968434" lon="10.393369425036118"><ele>285.0</ele><time>2026-04-18T09:14:16Z</time></trkpt><trkpt lat="45.5588507955223" lon="10.393480182891272"><ele>285.0</ele><time>2026-04-18T09:14:17Z</time></trkpt><trkpt lat="45.55890896718759" lon="10.393613010709977"><ele>283.6</ele><time>2026-04-18T09:14:18Z</time></trkpt><trkpt lat="45.558956350039956" lon="10.393727275983315"><ele>282.2</ele><time>2026-04-18T09:14:19Z</time></trkpt><trkpt lat="45.559005208925065" lon="10.393849487445358"><ele>280.8</ele><time>2026-04-18T09:14:20Z</time></trkpt><trkpt lat="45.55905389043643" lon="10.39396284728452"><ele>279.4</ele><time>2026-04-18T09:14:21Z</time></trkpt><trkpt lat="45.559078575218216" lon="10.394101497610388"><ele>278.0</ele><time>2026-04-18T09:14:22Z</time></trkpt><trkpt lat="45.55912506215764" lon="10.394220595360927"><ele>275.4</ele><time>2026-04-18T09:14:23Z</time></trkpt><trkpt lat="45.55916479097428" lon="10.394338398050541"><ele>272.8</ele><time>2026-04-18T09:14:24Z</time></trkpt><trkpt lat="45.55920134014828" lon="10.394466437792698"><ele>270.2</ele><time>2026-04-18T09:14:25Z</time></trkpt><trkpt lat="45.55922634523058" lon="10.394583098793266"><ele>267.6</ele><time>2026-04-18T09:14:26Z</time></trkpt><trkpt lat="45.55925535401135" lon="10.394717174067265"><ele>265.0</ele><time>2026-04-18T09:14:27Z</time></trkpt><trkpt lat="45.55928188855411" lon="10.394837015777885"><ele>262.4</ele><time>2026-04-18T09:14:28Z</time></trkpt><trkpt lat="45.55932733194603" lon="10.394955741152534"><ele>259.8</ele><time>2026-04-18T09:14:29Z</time></trkpt><trkpt lat="45.55934351391611" lon="10.395085794758309"><ele>257.2</ele><time>2026-04-18T09:14:30Z</time></trkpt><trkpt lat="45.559371078247345" lon="10.395210197856986"><ele>254.6</ele><time>2026-04-18T09:14:31Z</time></trkpt><trkpt lat="45.55935920386269" lon="10.395338475940155"><ele>252.0</ele><time>2026-04-18T09:14:32Z</time></trkpt><trkpt lat="45.559362426701256" lon="10.395476564276505"><ele>250.8</ele><time>2026-04-18T09:14:33Z</time></trkpt><trkpt lat="45.559379357967984" lon="10.395621830000477"><ele>249.6</ele><time>2026-04-18T09:14:34Z</time></trkpt><trkpt lat="45.559357327690975" lon="10.395761457354737"><ele>248.40000000000003</ele><time>2026-04-18T09:14:35Z</time></trkpt><trkpt lat="45.55933422512202" lon="10.395902006798432"><ele>247.20000000000002</ele><time>2026-04-18T09:14:36Z</time></trkpt><trkpt lat="45.55928870886082" lon="10.396034582821907"><ele>246.0</ele><time>2026-04-18T09:14:37Z</time></trkpt><trkpt lat="45.55926156887001" lon="10.396167158803518"><ele>246.0</ele><time>2026-04-18T09:14:38Z</time></trkpt><trkpt lat="45.55920662211552" lon="10.396321768144082"><ele>246.0</ele><time>2026-04-18T09:14:39Z</time></trkpt><trkpt lat="45.559167738604366" lon="10.396471931694778"><ele>246.0</ele><time>2026-04-18T09:14:40Z</time></trkpt><trkpt lat="45.55912089214423" lon="10.396613095107758"><ele>246.0</ele><time>2026-04-18T09:14:41Z</time></trkpt><trkpt lat="45.55906211054925" lon="10.396748823724668"><ele>247.75</ele><time>2026-04-18T09:14:42Z</time></trkpt><trkpt lat="45.558980378971455" lon="10.396865263323322"><ele>249.5</ele><time>2026-04-18T09:14:43Z</time></trkpt><trkpt lat="45.558910004114516" lon="10.39700427943949"><ele>251.25</ele><time>2026-04-18T09:14:44Z</time></trkpt><trkpt lat="45.55882505934984" lon="10.39711397371986"><ele>253.0</ele><time>2026-04-18T09:14:45Z</time></trkpt><trkpt lat="45.558746240340646" lon="10.397235020198023"><ele>248.2</ele><time>2026-04-18T09:14:46Z</time></trkpt><trkpt lat="45.558656800697165" lon="10.39734532329797"><ele>243.4</ele><time>2026-04-18T09:14:47Z</time></trkpt><trkpt lat="45.55858289802687" lon="10.3974571404683"><ele>238.59999999999997</ele><time>2026-04-18T09:14:48Z</time></trkpt><trkpt lat="45.55851459306378" lon="10.397549483381205"><ele>233.79999999999998</ele><time>2026-04-18T09:14:49Z</time></trkpt><trkpt lat="45.55844741838911" lon="10.39764228028336"><ele>229.0</ele><time>2026-04-18T09:14:50Z</time></trkpt><trkpt lat="45.558380341669576" lon="10.397747017783688"><ele>229.0</ele><time>2026-04-18T09:14:51Z</time></trkpt><trkpt lat="45.55831286841949" lon="10.397864490539051"><ele>229.0</ele><time>2026-04-18T09:14:52Z</time></trkpt><trkpt lat="45.5582433871383" lon="10.39799172719629"><ele>229.0</ele><time>2026-04-18T09:14:53Z</time></trkpt><trkpt lat="45.55816105815119" lon="10.398123801883862"><ele>229.0</ele><time>2026-04-18T09:14:54Z</time></trkpt><trkpt lat="45.55807697564173" lon="10.398234848427203"><ele>225.75</ele><time>2026-04-18T09:14:55Z</time></trkpt><trkpt lat="45.5579916482144" lon="10.398344418597548"><ele>222.5</ele><time>2026-04-18T09:14:56Z</time></trkpt><trkpt lat="45.55789939341589" lon="10.398454085592775"><ele>219.25</ele><time>2026-04-18T09:14:57Z</time></trkpt><trkpt lat="45.55780583889543" lon="10.398560640078566"><ele>216.0</ele><time>2026-04-18T09:14:58Z</time></trkpt><trkpt lat="45.55772190740972" lon="10.39867055319585"><ele>216.0</ele><time>2026-04-18T09:14:59Z</time></trkpt><trkpt lat="45.55765582250032" lon="10.39879731445219"><ele>216.00000000000003</ele><time>2026-04-18T09:15:00Z</time></trkpt><trkpt lat="45.55760855103736" lon="10.39893777113226"><ele>216.00000000000003</ele><time>2026-04-18T09:15:01Z</time></trkpt><trkpt lat="45.55757281679855" lon="10.399058401232347"><ele>216.0</ele><time>2026-04-18T09:15:02Z</time></trkpt><trkpt lat="45.55751424925982" lon="10.399136485503409"><ele>216.0</ele><time>2026-04-18T09:15:03Z</time></trkpt><trkpt lat="45.557448190051886" lon="10.399178067328526"><ele>218.8</ele><time>2026-04-18T09:15:04Z</time></trkpt><trkpt lat="45.55736965299858" lon="10.3992537512423"><ele>221.60000000000002</ele><time>2026-04-18T09:15:05Z</time></trkpt><trkpt lat="45.557281484874146" lon="10.399337259154061"><ele>224.4</ele><time>2026-04-18T09:15:06Z</time></trkpt><trkpt lat="45.557203103209694" lon="10.399416867360623"><ele>227.2</ele><time>2026-04-18T09:15:07Z</time></trkpt><trkpt lat="45.55712415975405" lon="10.399505443391524"><ele>230.0</ele><time>2026-04-18T09:15:08Z</time></trkpt><trkpt lat="45.557040679971436" lon="10.39957514614166"><ele>226.66666666666669</ele><time>2026-04-18T09:15:09Z</time></trkpt><trkpt lat="45.556981422895376" lon="10.399663652901582"><ele>223.33333333333334</ele><time>2026-04-18T09:15:10Z</time></trkpt><trkpt lat="45.5569486705396" lon="10.39977720275784"><ele>220.0</ele><time>2026-04-18T09:15:11Z</time></trkpt><trkpt lat="45.55693099301022" lon="10.399908101039994"><ele>216.66666666666669</ele><time>2026-04-18T09:15:12Z</time></trkpt><trkpt lat="45.556937159690655" lon="10.400025091684348"><ele>213.33333333333334</ele><time>2026-04-18T09:15:13Z</time></trkpt><trkpt lat="45.5569690051101" lon="10.400129108294365"><ele>210.0</ele><time>2026-04-18T09:15:14Z</time></trkpt><trkpt lat="45.55703220395556" lon="10.400211124183505"><ele>213.66666666666666</ele><time>2026-04-18T09:15:15Z</time></trkpt><trkpt lat="45.55709606586927" lon="10.400290686441373"><ele>217.33333333333331</ele><time>2026-04-18T09:15:16Z</time></trkpt><trkpt lat="45.55711896747022" lon="10.400384792356377"><ele>221.0</ele><time>2026-04-18T09:15:17Z</time></trkpt><trkpt lat="45.55710255468676" lon="10.400489224353874"><ele>224.66666666666666</ele><time>2026-04-18T09:15:18Z</time></trkpt><trkpt lat="45.55702716021154" lon="10.400573154838835"><ele>228.33333333333331</ele><time>2026-04-18T09:15:19Z</time></trkpt><trkpt lat="45.55693334409254" lon="10.400608308650565"><ele>232.0</ele><time>2026-04-18T09:15:20Z</time></trkpt><trkpt lat="45.556856968122446" lon="10.400522748960695"><ele>227.6</ele><time>2026-04-18T09:15:21Z</time></trkpt><trkpt lat="45.5567755562135" lon="10.40048940983642"><ele>223.2</ele><time>2026-04-18T09:15:22Z</time></trkpt><trkpt lat="45.556677405319796" lon="10.400459557607038"><ele>218.8</ele><time>2026-04-18T09:15:23Z</time></trkpt><trkpt lat="45.55658419703321" lon="10.400431447316636"><ele>214.4</ele><time>2026-04-18T09:15:24Z</time></trkpt><trkpt lat="45.55647958094862" lon="10.400409164014938"><ele>210.0</ele><time>2026-04-18T09:15:25Z</time></trkpt><trkpt lat="45.55636869622712" lon="10.400394521515308"><ele>210.0</ele><time>2026-04-18T09:15:26Z</time></trkpt><trkpt lat="45.55625353935628" lon="10.400370613514916"><ele>210.0</ele><time>2026-04-18T09:15:27Z</time></trkpt><trkpt lat="45.556146855743144" lon="10.400367463121457"><ele>210.0</ele><time>2026-04-18T09:15:28Z</time></trkpt><trkpt lat="45.55603124860607" lon="10.40034416647379"><ele>210.0</ele><time>2026-04-18T09:15:29Z</time></trkpt><trkpt lat="45.55591458210341" lon="10.400287635582535"><ele>207.0</ele><time>2026-04-18T09:15:30Z</time></trkpt><trkpt lat="45.5557842642661" lon="10.40027195908613"><ele>204.0</ele><time>2026-04-18T09:15:31Z</time></trkpt><trkpt lat="45.5556670388757" lon="10.400243196477884"><ele>201.0</ele><time>2026-04-18T09:15:32Z</time></trkpt><trkpt lat="45.55553517106883" lon="10.400210990747459"><ele>198.0</ele><time>2026-04-18T09:15:33Z</time></trkpt><trkpt lat="45.55541612913329" lon="10.400172045652953"><ele>197.5</ele><time>2026-04-18T09:15:34Z</time></trkpt><trkpt lat="45.55529504133769" lon="10.400121368922715"><ele>197.0</ele><time>2026-04-18T09:15:35Z</time></trkpt><trkpt lat="45.55517281276861" lon="10.400121000076338"><ele>196.5</ele><time>2026-04-18T09:15:36Z</time></trkpt><trkpt lat="45.55505147993928" lon="10.400112133937837"><ele>196.0</ele><time>2026-04-18T09:15:37Z</time></trkpt><trkpt lat="45.55494526584353" lon="10.400123259186872"><ele>195.99999999999997</ele><time>2026-04-18T09:15:38Z</time></trkpt><trkpt lat="45.55486022261671" lon="10.400121214173177"><ele>196.0</ele><time>2026-04-18T09:15:39Z</time></trkpt><trkpt lat="45.55472513143936" lon="10.400130469352435"><ele>196.0</ele><time>2026-04-18T09:15:41Z</time></trkpt><trkpt lat="45.5546616801981" lon="10.400083062886281"><ele>196.0</ele><time>2026-04-18T09:15:42Z</time></trkpt><trkpt lat="45.55464378449134" lon="10.39998282430496"><ele>195.99999999999997</ele><time>2026-04-18T09:15:43Z</time></trkpt><trkpt lat="45.554603989581025" lon="10.399901536569967"><ele>196.0</ele><time>2026-04-18T09:15:44Z</time></trkpt><trkpt lat="45.55457775411805" lon="10.399816268498316"><ele>196.0</ele><time>2026-04-18T09:15:45Z</time></trkpt><trkpt lat="45.554597936334595" lon="10.399727072646922"><ele>196.0</ele><time>2026-04-18T09:15:46Z</time></trkpt><trkpt lat="45.55459484949105" lon="10.399579158947892"><ele>196.0</ele><time>2026-04-18T09:15:48Z</time></trkpt><trkpt lat="45.554478083238706" lon="10.399567016299926"><ele>196.0</ele><time>2026-04-18T09:15:50Z</time></trkpt><trkpt lat="45.554376485827426" lon="10.39949729333399"><ele>196.0</ele><time>2026-04-18T09:15:52Z</time></trkpt><trkpt lat="45.554323285015094" lon="10.399445341928322"><ele>193.60000000000002</ele><time>2026-04-18T09:15:53Z</time></trkpt><trkpt lat="45.55422711182726" lon="10.39932497000811"><ele>191.2</ele><time>2026-04-18T09:15:55Z</time></trkpt><trkpt lat="45.55412765066434" lon="10.399260998729131"><ele>188.8</ele><time>2026-04-18T09:15:57Z</time></trkpt><trkpt lat="45.55403344714647" lon="10.3992342656173"><ele>186.39999999999998</ele><time>2026-04-18T09:15:59Z</time></trkpt><trkpt lat="45.5539604480866" lon="10.399141752838014"><ele>184.0</ele><time>2026-04-18T09:16:01Z</time></trkpt><trkpt lat="45.55385587051935" lon="10.399094608227013"><ele>184.0</ele><time>2026-04-18T09:16:03Z</time></trkpt><trkpt lat="45.553741611084284" lon="10.39905566350643"><ele>184.0</ele><time>2026-04-18T09:16:05Z</time></trkpt><trkpt lat="45.55363826778586" lon="10.399011489476464"><ele>184.0</ele><time>2026-04-18T09:16:07Z</time></trkpt><trkpt lat="45.55353996829175" lon="10.39891210620511"><ele>184.0</ele><time>2026-04-18T09:16:09Z</time></trkpt><trkpt lat="45.55346816738208" lon="10.398893356895009"><ele>184.0</ele><time>2026-04-18T09:16:10Z</time></trkpt><trkpt lat="45.55339491404018" lon="10.398891509767939"><ele>184.39999999999998</ele><time>2026-04-18T09:16:11Z</time></trkpt><trkpt lat="45.5532960711616" lon="10.398792619100607"><ele>184.8</ele><time>2026-04-18T09:16:13Z</time></trkpt><trkpt lat="45.55321257744094" lon="10.398705264843532"><ele>185.2</ele><time>2026-04-18T09:16:15Z</time></trkpt><trkpt lat="45.55310330721642" lon="10.398722560817879"><ele>185.60000000000002</ele><time>2026-04-18T09:16:17Z</time></trkpt><trkpt lat="45.553043627308284" lon="10.398756892394676"><ele>186.0</ele><time>2026-04-18T09:16:18Z</time></trkpt><trkpt lat="45.55293443312185" lon="10.39882437288054"><ele>185.66666666666666</ele><time>2026-04-18T09:16:20Z</time></trkpt><trkpt lat="45.55287079051573" lon="10.398853219932896"><ele>185.33333333333334</ele><time>2026-04-18T09:16:21Z</time></trkpt><trkpt lat="45.55276728483124" lon="10.398896447546058"><ele>185.0</ele><time>2026-04-18T09:16:23Z</time></trkpt><trkpt lat="45.552701722355415" lon="10.398944176710103"><ele>184.66666666666669</ele><time>2026-04-18T09:16:24Z</time></trkpt><trkpt lat="45.552601421305674" lon="10.398990779884194"><ele>184.33333333333334</ele><time>2026-04-18T09:16:26Z</time></trkpt><trkpt lat="45.55253879033979" lon="10.399005799792867"><ele>184.0</ele><time>2026-04-18T09:16:27Z</time></trkpt><trkpt lat="45.55245392443955" lon="10.39909978101742"><ele>184.0</ele><time>2026-04-18T09:16:29Z</time></trkpt><trkpt lat="45.55238989372684" lon="10.399206523599425"><ele>184.0</ele><time>2026-04-18T09:16:31Z</time></trkpt><trkpt lat="45.55234916459334" lon="10.399310375779603"><ele>184.0</ele><time>2026-04-18T09:16:33Z</time></trkpt><trkpt lat="45.55234406000109" lon="10.399434475222467"><ele>184.0</ele><time>2026-04-18T09:16:35Z</time></trkpt><trkpt lat="45.55236186245421" lon="10.399570866316324"><ele>184.0</ele><time>2026-04-18T09:16:37Z</time></trkpt><trkpt lat="45.55237231522991" lon="10.399712660738976"><ele>183.66666666666669</ele><time>2026-04-18T09:16:39Z</time></trkpt><trkpt lat="45.5523483614956" lon="10.399872316455236"><ele>183.33333333333334</ele><time>2026-04-18T09:16:41Z</time></trkpt><trkpt lat="45.552285775994534" lon="10.39992623318964"><ele>183.0</ele><time>2026-04-18T09:16:42Z</time></trkpt><trkpt lat="45.55223597141058" lon="10.399995027083063"><ele>182.66666666666666</ele><time>2026-04-18T09:16:43Z</time></trkpt><trkpt lat="45.552182710574655" lon="10.40005616730112"><ele>182.33333333333331</ele><time>2026-04-18T09:16:44Z</time></trkpt><trkpt lat="45.55212857867234" lon="10.400140105578215"><ele>182.0</ele><time>2026-04-18T09:16:45Z</time></trkpt><trkpt lat="45.55207042541392" lon="10.400193299167473"><ele>182.16666666666666</ele><time>2026-04-18T09:16:46Z</time></trkpt><trkpt lat="45.552004360536195" lon="10.400261162291294"><ele>182.33333333333331</ele><time>2026-04-18T09:16:47Z</time></trkpt><trkpt lat="45.5519395786579" lon="10.400331708426656"><ele>182.5</ele><time>2026-04-18T09:16:48Z</time></trkpt><trkpt lat="45.55187290063605" lon="10.400403935495227"><ele>182.66666666666666</ele><time>2026-04-18T09:16:49Z</time></trkpt><trkpt lat="45.551806481981316" lon="10.400478131149308"><ele>182.83333333333334</ele><time>2026-04-18T09:16:50Z</time></trkpt><trkpt lat="45.55174306315522" lon="10.400546670753055"><ele>183.0</ele><time>2026-04-18T09:16:51Z</time></trkpt><trkpt lat="45.55168163030081" lon="10.40061326705167"><ele>182.66666666666666</ele><time>2026-04-18T09:16:52Z</time></trkpt><trkpt lat="45.55161666948838" lon="10.40067994243194"><ele>182.33333333333334</ele><time>2026-04-18T09:16:53Z</time></trkpt><trkpt lat="45.551557831038394" lon="10.400747275349273"><ele>182.0</ele><time>2026-04-18T09:16:54Z</time></trkpt><trkpt lat="45.55149986126067" lon="10.400806497536854"><ele>181.66666666666669</ele><time>2026-04-18T09:16:55Z</time></trkpt><trkpt lat="45.55143944235035" lon="10.40087411817258"><ele>181.33333333333334</ele><time>2026-04-18T09:16:56Z</time></trkpt><trkpt lat="45.5513872812859" lon="10.400927089391109"><ele>181.0</ele><time>2026-04-18T09:16:57Z</time></trkpt><trkpt lat="45.551290301527494" lon="10.401028116979406"><ele>181.0</ele><time>2026-04-18T09:16:59Z</time></trkpt><trkpt lat="45.55123780844962" lon="10.401078708084128"><ele>181.0</ele><time>2026-04-18T09:17:02Z</time></trkpt><trkpt lat="45.55117424616772" lon="10.401084658875098"><ele>181.0</ele><time>2026-04-18T09:17:05Z</time></trkpt><trkpt lat="45.55106229669843" lon="10.401070464962242"><ele>181.0</ele><time>2026-04-18T09:17:07Z</time></trkpt><trkpt lat="45.550952507340654" lon="10.401127243537745"><ele>181.0</ele><time>2026-04-18T09:17:09Z</time></trkpt><trkpt lat="45.55090062709857" lon="10.401195905153717"><ele>181.0</ele><time>2026-04-18T09:17:10Z</time></trkpt><trkpt lat="45.550860725314465" lon="10.401363485315953"><ele>180.8</ele><time>2026-04-18T09:17:12Z</time></trkpt><trkpt lat="45.55081137215424" lon="10.40151293483335"><ele>180.60000000000002</ele><time>2026-04-18T09:17:14Z</time></trkpt><trkpt lat="45.55072674925277" lon="10.401605917029409"><ele>180.4</ele><time>2026-04-18T09:17:16Z</time></trkpt><trkpt lat="45.55065445012037" lon="10.401712278904059"><ele>180.2</ele><time>2026-04-18T09:17:18Z</time></trkpt><trkpt lat="45.5505758910977" lon="10.401798018094086"><ele>180.0</ele><time>2026-04-18T09:17:20Z</time></trkpt><trkpt lat="45.55049684163434" lon="10.401885104217007"><ele>180.0</ele><time>2026-04-18T09:17:22Z</time></trkpt><trkpt lat="45.550412794217756" lon="10.40197345963522"><ele>180.0</ele><time>2026-04-18T09:17:24Z</time></trkpt><trkpt lat="45.55032572660881" lon="10.402054007943851"><ele>180.0</ele><time>2026-04-18T09:17:26Z</time></trkpt><trkpt lat="45.55024999036448" lon="10.402140962713995"><ele>180.0</ele><time>2026-04-18T09:17:28Z</time></trkpt><trkpt lat="45.550172809673384" lon="10.40222022902607"><ele>180.0</ele><time>2026-04-18T09:17:30Z</time></trkpt><trkpt lat="45.550096114536544" lon="10.402304905466606"><ele>180.0</ele><time>2026-04-18T09:17:32Z</time></trkpt><trkpt lat="45.55001754236661" lon="10.402387633815062"><ele>180.0</ele><time>2026-04-18T09:17:34Z</time></trkpt><trkpt lat="45.54993836918501" lon="10.402460799486727"><ele>180.0</ele><time>2026-04-18T09:17:36Z</time></trkpt><trkpt lat="45.54985571512607" lon="10.402520057710591"><ele>180.0</ele><time>2026-04-18T09:17:38Z</time></trkpt><trkpt lat="45.549772737995454" lon="10.402591692443435"><ele>180.0</ele><time>2026-04-18T09:17:40Z</time></trkpt><trkpt lat="45.549688304029175" lon="10.402650192943709"><ele>180.0</ele><time>2026-04-18T09:17:42Z</time></trkpt><trkpt lat="45.54959909681665" lon="10.402724351208237"><ele>180.0</ele><time>2026-04-18T09:17:44Z</time></trkpt><trkpt lat="45.54950054626744" lon="10.402760730519049"><ele>180.0</ele><time>2026-04-18T09:17:46Z</time></trkpt><trkpt lat="45.54941398824559" lon="10.402826481428955"><ele>180.0</ele><time>2026-04-18T09:17:48Z</time></trkpt><trkpt lat="45.54933153995941" lon="10.402889110468054"><ele>180.0</ele><time>2026-04-18T09:17:50Z</time></trkpt><trkpt lat="45.549253962180686" lon="10.402948039791873"><ele>180.16666666666666</ele><time>2026-04-18T09:17:52Z</time></trkpt><trkpt lat="45.54917844474892" lon="10.403005404096655"><ele>180.33333333333334</ele><time>2026-04-18T09:17:54Z</time></trkpt><trkpt lat="45.54910961212806" lon="10.4030576904341"><ele>180.5</ele><time>2026-04-18T09:17:56Z</time></trkpt><trkpt lat="45.549037732373066" lon="10.403111310028228"><ele>180.66666666666669</ele><time>2026-04-18T09:17:58Z</time></trkpt><trkpt lat="45.54896402238124" lon="10.403166112673448"><ele>180.83333333333334</ele><time>2026-04-18T09:18:00Z</time></trkpt><trkpt lat="45.54889271572394" lon="10.403220445531398"><ele>181.0</ele><time>2026-04-18T09:18:02Z</time></trkpt><trkpt lat="45.54882219278208" lon="10.40328072122238"><ele>181.0</ele><time>2026-04-18T09:18:04Z</time></trkpt><trkpt lat="45.54875570852442" lon="10.403342868158267"><ele>181.0</ele><time>2026-04-18T09:18:06Z</time></trkpt><trkpt lat="45.548687400737116" lon="10.40340884015394"><ele>181.0</ele><time>2026-04-18T09:18:08Z</time></trkpt><trkpt lat="45.54862195387134" lon="10.403474258627716"><ele>181.0</ele><time>2026-04-18T09:18:10Z</time></trkpt><trkpt lat="45.54856018517085" lon="10.403536761152068"><ele>181.0</ele><time>2026-04-18T09:18:12Z</time></trkpt><trkpt lat="45.5485033221665" lon="10.403638761387684"><ele>181.0</ele><time>2026-04-18T09:18:14Z</time></trkpt><trkpt lat="45.5484346266016" lon="10.403703595093779"><ele>181.0</ele><time>2026-04-18T09:18:16Z</time></trkpt><trkpt lat="45.54836830312515" lon="10.403784264547395"><ele>181.0</ele><time>2026-04-18T09:18:18Z</time></trkpt><trkpt lat="45.54830165184608" lon="10.403868829145049"><ele>181.0</ele><time>2026-04-18T09:18:20Z</time></trkpt><trkpt lat="45.54823445291123" lon="10.403950048458503"><ele>181.0</ele><time>2026-04-18T09:18:22Z</time></trkpt><trkpt lat="45.54816870100211" lon="10.404034528506141"><ele>181.0</ele><time>2026-04-18T09:18:24Z</time></trkpt><trkpt lat="45.54810603368748" lon="10.40409981247662"><ele>181.0</ele><time>2026-04-18T09:18:26Z</time></trkpt><trkpt lat="45.54804502704928" lon="10.404156845628581"><ele>180.83333333333334</ele><time>2026-04-18T09:18:28Z</time></trkpt><trkpt lat="45.54797780514174" lon="10.404224380747785"><ele>180.66666666666669</ele><time>2026-04-18T09:18:30Z</time></trkpt><trkpt lat="45.54791169607438" lon="10.40432010988312"><ele>180.5</ele><time>2026-04-18T09:18:32Z</time></trkpt><trkpt lat="45.54783180950757" lon="10.404405492867532"><ele>180.33333333333334</ele><time>2026-04-18T09:18:35Z</time></trkpt><trkpt lat="45.54775953883981" lon="10.404455907113743"><ele>180.16666666666666</ele><time>2026-04-18T09:18:37Z</time></trkpt><trkpt lat="45.547697791373736" lon="10.404529830890176"><ele>180.0</ele><time>2026-04-18T09:18:39Z</time></trkpt><trkpt lat="45.54764374943177" lon="10.404589259198385"><ele>180.0</ele><time>2026-04-18T09:18:41Z</time></trkpt><trkpt lat="45.54756723594746" lon="10.404663942960033"><ele>180.0</ele><time>2026-04-18T09:18:44Z</time></trkpt><trkpt lat="45.547505689263446" lon="10.404724171249843"><ele>180.0</ele><time>2026-04-18T09:18:47Z</time></trkpt><trkpt lat="45.547559830773544" lon="10.404890568631702"><ele>180.0</ele><time>2026-04-18T09:18:49Z</time></trkpt><trkpt lat="45.54759239161591" lon="10.404978870266426"><ele>180.0</ele><time>2026-04-18T09:18:51Z</time></trkpt><trkpt lat="45.54762887324347" lon="10.405073181368838"><ele>180.0</ele><time>2026-04-18T09:18:53Z</time></trkpt><trkpt lat="45.54765569002617" lon="10.40518172989476"><ele>180.0</ele><time>2026-04-18T09:18:55Z</time></trkpt><trkpt lat="45.547692741215336" lon="10.405269902562301"><ele>180.0</ele><time>2026-04-18T09:18:57Z</time></trkpt><trkpt lat="45.547737747644696" lon="10.405365745442564"><ele>180.0</ele><time>2026-04-18T09:18:59Z</time></trkpt><trkpt lat="45.54779651088268" lon="10.405435310785794"><ele>180.0</ele><time>2026-04-18T09:19:01Z</time></trkpt><trkpt lat="45.547842607746404" lon="10.40551872825968"><ele>180.0</ele><time>2026-04-18T09:19:03Z</time></trkpt><trkpt lat="45.54789076758958" lon="10.405596736338776"><ele>180.0</ele><time>2026-04-18T09:19:05Z</time></trkpt><trkpt lat="45.54793725272414" lon="10.40567982675456"><ele>180.0</ele><time>2026-04-18T09:19:07Z</time></trkpt><trkpt lat="45.547994177159175" lon="10.405756443040337"><ele>180.0</ele><time>2026-04-18T09:19:09Z</time></trkpt><trkpt lat="45.548048463606996" lon="10.405843733557196"><ele>180.0</ele><time>2026-04-18T09:19:11Z</time></trkpt><trkpt lat="45.54810126997032" lon="10.40592307759827"><ele>180.0</ele><time>2026-04-18T09:19:13Z</time></trkpt><trkpt lat="45.548157437431286" lon="10.406006969509665"><ele>180.0</ele><time>2026-04-18T09:19:15Z</time></trkpt><trkpt lat="45.54822308281063" lon="10.406081418485263"><ele>180.0</ele><time>2026-04-18T09:19:17Z</time></trkpt><trkpt lat="45.548287626985164" lon="10.40616501396142"><ele>180.0</ele><time>2026-04-18T09:19:19Z</time></trkpt><trkpt lat="45.54835668172698" lon="10.406247741929999"><ele>180.0</ele><time>2026-04-18T09:19:21Z</time></trkpt><trkpt lat="45.548419384229945" lon="10.406346709519616"><ele>180.0</ele><time>2026-04-18T09:19:23Z</time></trkpt><trkpt lat="45.548487859877795" lon="10.406437365271248"><ele>180.0</ele><time>2026-04-18T09:19:25Z</time></trkpt><trkpt lat="45.54854571458161" lon="10.406537366887445"><ele>180.0</ele><time>2026-04-18T09:19:27Z</time></trkpt><trkpt lat="45.54860222087383" lon="10.406641790785779"><ele>180.0</ele><time>2026-04-18T09:19:29Z</time></trkpt><trkpt lat="45.548664295658774" lon="10.40674804607029"><ele>180.0</ele><time>2026-04-18T09:19:31Z</time></trkpt><trkpt lat="45.548709226269175" lon="10.406873513007923"><ele>180.0</ele><time>2026-04-18T09:19:33Z</time></trkpt><trkpt lat="45.54877337082463" lon="10.406957583514382"><ele>180.0</ele><time>2026-04-18T09:19:35Z</time></trkpt><trkpt lat="45.548820230797176" lon="10.407051986327188"><ele>180.0</ele><time>2026-04-18T09:19:37Z</time></trkpt><trkpt lat="45.54885637926428" lon="10.407138180311916"><ele>180.0</ele><time>2026-04-18T09:19:39Z</time></trkpt><trkpt lat="45.54889348095529" lon="10.407239974030222"><ele>179.83333333333334</ele><time>2026-04-18T09:19:42Z</time></trkpt><trkpt lat="45.54880640613363" lon="10.407307713688784"><ele>179.66666666666666</ele><time>2026-04-18T09:19:44Z</time></trkpt><trkpt lat="45.54874615098715" lon="10.407382311479015"><ele>179.5</ele><time>2026-04-18T09:19:46Z</time></trkpt><trkpt lat="45.548684101473846" lon="10.407457745347147"><ele>179.33333333333331</ele><time>2026-04-18T09:19:48Z</time></trkpt><trkpt lat="45.5486248980013" lon="10.407543685810946"><ele>179.16666666666666</ele><time>2026-04-18T09:19:50Z</time></trkpt><trkpt lat="45.548554084538026" lon="10.407621686610401"><ele>179.0</ele><time>2026-04-18T09:19:52Z</time></trkpt><trkpt lat="45.54849027357133" lon="10.407707966058558"><ele>179.2</ele><time>2026-04-18T09:19:54Z</time></trkpt><trkpt lat="45.548421682369614" lon="10.40778828876109"><ele>179.39999999999998</ele><time>2026-04-18T09:19:56Z</time></trkpt><trkpt lat="45.5483530096898" lon="10.407882994418273"><ele>179.6</ele><time>2026-04-18T09:19:58Z</time></trkpt><trkpt lat="45.54827808527378" lon="10.407971209213079"><ele>179.8</ele><time>2026-04-18T09:20:00Z</time></trkpt><trkpt lat="45.548206201092555" lon="10.40806649761358"><ele>180.0</ele><time>2026-04-18T09:20:02Z</time></trkpt><trkpt lat="45.54813054261761" lon="10.408161517626917"><ele>180.0</ele><time>2026-04-18T09:20:04Z</time></trkpt><trkpt lat="45.548056241740895" lon="10.40826108631309"><ele>180.0</ele><time>2026-04-18T09:20:06Z</time></trkpt><trkpt lat="45.5479828345107" lon="10.408358802289314"><ele>180.0</ele><time>2026-04-18T09:20:08Z</time></trkpt><trkpt lat="45.54790792131187" lon="10.408452391296379"><ele>180.0</ele><time>2026-04-18T09:20:10Z</time></trkpt><trkpt lat="45.547840467003866" lon="10.40854032354785"><ele>180.0</ele><time>2026-04-18T09:20:12Z</time></trkpt><trkpt lat="45.54777280125091" lon="10.408630462942105"><ele>180.4</ele><time>2026-04-18T09:20:14Z</time></trkpt><trkpt lat="45.547692073164214" lon="10.408740672720441"><ele>180.8</ele><time>2026-04-18T09:20:16Z</time></trkpt><trkpt lat="45.54761863899715" lon="10.408829027382826"><ele>181.2</ele><time>2026-04-18T09:20:18Z</time></trkpt><trkpt lat="45.54755332014769" lon="10.40889594086131"><ele>181.6</ele><time>2026-04-18T09:20:20Z</time></trkpt><trkpt lat="45.547490698513144" lon="10.408988586762959"><ele>182.0</ele><time>2026-04-18T09:20:23Z</time></trkpt><trkpt lat="45.54743739579198" lon="10.409079147701751"><ele>182.0</ele><time>2026-04-18T09:20:25Z</time></trkpt><trkpt lat="45.54734166776584" lon="10.409168735548645"><ele>182.0</ele><time>2026-04-18T09:20:27Z</time></trkpt><trkpt lat="45.54724880621437" lon="10.409263243693246"><ele>182.0</ele><time>2026-04-18T09:20:29Z</time></trkpt><trkpt lat="45.54716535952578" lon="10.409364749444482"><ele>182.0</ele><time>2026-04-18T09:20:31Z</time></trkpt><trkpt lat="45.547086195520144" lon="10.409469802476119"><ele>182.0</ele><time>2026-04-18T09:20:33Z</time></trkpt><trkpt lat="45.54698007994129" lon="10.409569163901907"><ele>181.85714285714286</ele><time>2026-04-18T09:20:35Z</time></trkpt><trkpt lat="45.54692844744608" lon="10.409631237447584"><ele>181.71428571428572</ele><time>2026-04-18T09:20:36Z</time></trkpt><trkpt lat="45.546877609647694" lon="10.409692355606667"><ele>181.57142857142856</ele><time>2026-04-18T09:20:37Z</time></trkpt><trkpt lat="45.54683093064437" lon="10.409774464726919"><ele>181.42857142857144</ele><time>2026-04-18T09:20:38Z</time></trkpt><trkpt lat="45.54677031503483" lon="10.40983933567144"><ele>181.28571428571428</ele><time>2026-04-18T09:20:39Z</time></trkpt><trkpt lat="45.54671653597682" lon="10.409904086404108"><ele>181.14285714285714</ele><time>2026-04-18T09:20:40Z</time></trkpt><trkpt lat="45.54666859780082" lon="10.409970141280866"><ele>181.0</ele><time>2026-04-18T09:20:41Z</time></trkpt><trkpt lat="45.546620938930914" lon="10.41002918500883"><ele>181.0</ele><time>2026-04-18T09:20:42Z</time></trkpt><trkpt lat="45.546531024944606" lon="10.410128068266669"><ele>181.0</ele><time>2026-04-18T09:20:44Z</time></trkpt><trkpt lat="45.54647300554806" lon="10.410207134068058"><ele>181.0</ele><time>2026-04-18T09:20:47Z</time></trkpt><trkpt lat="45.54648218100219" lon="10.410381672001154"><ele>181.0</ele><time>2026-04-18T09:20:51Z</time></trkpt><trkpt lat="45.54653522698338" lon="10.41045280931394"><ele>181.0</ele><time>2026-04-18T09:20:53Z</time></trkpt><trkpt lat="45.54658593104412" lon="10.410542686855665"><ele>181.0</ele><time>2026-04-18T09:20:55Z</time></trkpt><trkpt lat="45.546641468171906" lon="10.410626730114828"><ele>181.0</ele><time>2026-04-18T09:20:57Z</time></trkpt><trkpt lat="45.54670319314958" lon="10.410717675155817"><ele>181.0</ele><time>2026-04-18T09:20:59Z</time></trkpt><trkpt lat="45.54676178889181" lon="10.41082759862222"><ele>181.0</ele><time>2026-04-18T09:21:01Z</time></trkpt><trkpt lat="45.54683692809467" lon="10.410936482272117"><ele>181.0</ele><time>2026-04-18T09:21:03Z</time></trkpt><trkpt lat="45.546912930514274" lon="10.411026885176641"><ele>181.0</ele><time>2026-04-18T09:21:05Z</time></trkpt><trkpt lat="45.546988382281185" lon="10.41111869045292"><ele>181.0</ele><time>2026-04-18T09:21:07Z</time></trkpt><trkpt lat="45.54707901120678" lon="10.411213423648533"><ele>181.0</ele><time>2026-04-18T09:21:09Z</time></trkpt><trkpt lat="45.54716000613722" lon="10.411294700588689"><ele>181.0</ele><time>2026-04-18T09:21:11Z</time></trkpt><trkpt lat="45.54722873584368" lon="10.411386217364411"><ele>181.0</ele><time>2026-04-18T09:21:13Z</time></trkpt><trkpt lat="45.547299422319625" lon="10.411459622160718"><ele>181.5</ele><time>2026-04-18T09:21:15Z</time></trkpt><trkpt lat="45.54736803895257" lon="10.411557122420778"><ele>182.0</ele><time>2026-04-18T09:21:17Z</time></trkpt><trkpt lat="45.547420062068056" lon="10.411651773517299"><ele>182.5</ele><time>2026-04-18T09:21:19Z</time></trkpt><trkpt lat="45.54747915622909" lon="10.411720344519619"><ele>183.0</ele><time>2026-04-18T09:21:21Z</time></trkpt><trkpt lat="45.54755179717885" lon="10.41179106901918"><ele>183.5</ele><time>2026-04-18T09:21:23Z</time></trkpt><trkpt lat="45.54761097111188" lon="10.411881711345746"><ele>184.0</ele><time>2026-04-18T09:21:25Z</time></trkpt><trkpt lat="45.54766594306342" lon="10.411967618405743"><ele>184.0</ele><time>2026-04-18T09:21:27Z</time></trkpt><trkpt lat="45.54773071544119" lon="10.412031735171642"><ele>184.0</ele><time>2026-04-18T09:21:29Z</time></trkpt><trkpt lat="45.54779145446676" lon="10.412105542140573"><ele>184.0</ele><time>2026-04-18T09:21:31Z</time></trkpt><trkpt lat="45.54785639166458" lon="10.412174522215818"><ele>184.0</ele><time>2026-04-18T09:21:33Z</time></trkpt><trkpt lat="45.54791808713269" lon="10.412254090831643"><ele>184.0</ele><time>2026-04-18T09:21:35Z</time></trkpt><trkpt lat="45.547961600258766" lon="10.412346811102474"><ele>184.0</ele><time>2026-04-18T09:21:37Z</time></trkpt><trkpt lat="45.54802293072308" lon="10.412424309542123"><ele>183.85714285714286</ele><time>2026-04-18T09:21:39Z</time></trkpt><trkpt lat="45.54806235092424" lon="10.412495701175807"><ele>183.7142857142857</ele><time>2026-04-18T09:21:41Z</time></trkpt><trkpt lat="45.548113009267055" lon="10.412553842553413"><ele>183.57142857142856</ele><time>2026-04-18T09:21:46Z</time></trkpt><trkpt lat="45.54815563774372" lon="10.412629057522402"><ele>183.42857142857144</ele><time>2026-04-18T09:21:48Z</time></trkpt><trkpt lat="45.5482035868636" lon="10.412705120729388"><ele>183.28571428571428</ele><time>2026-04-18T09:21:50Z</time></trkpt><trkpt lat="45.548256661940805" lon="10.412777026107449"><ele>183.14285714285714</ele><time>2026-04-18T09:21:52Z</time></trkpt><trkpt lat="45.54830866515111" lon="10.412856525902193"><ele>183.0</ele><time>2026-04-18T09:21:54Z</time></trkpt><trkpt lat="45.54836206156888" lon="10.412927397303307"><ele>183.0</ele><time>2026-04-18T09:21:56Z</time></trkpt><trkpt lat="45.54840944976144" lon="10.41300239309685"><ele>183.0</ele><time>2026-04-18T09:21:58Z</time></trkpt><trkpt lat="45.54846772884034" lon="10.413083534729083"><ele>183.0</ele><time>2026-04-18T09:22:01Z</time></trkpt><trkpt lat="45.548550616174005" lon="10.413157047888939"><ele>183.0</ele><time>2026-04-18T09:22:04Z</time></trkpt><trkpt lat="45.54862429677936" lon="10.413225684566653"><ele>183.0</ele><time>2026-04-18T09:22:07Z</time></trkpt><trkpt lat="45.54868730993032" lon="10.41325670955006"><ele>183.0</ele><time>2026-04-18T09:22:11Z</time></trkpt><trkpt lat="45.54876707968713" lon="10.413334562933752"><ele>183.0</ele><time>2026-04-18T09:22:14Z</time></trkpt><trkpt lat="45.54883214378954" lon="10.41338865076586"><ele>183.0</ele><time>2026-04-18T09:22:16Z</time></trkpt><trkpt lat="45.54890381768947" lon="10.413466259338573"><ele>183.0</ele><time>2026-04-18T09:22:18Z</time></trkpt><trkpt lat="45.54896147506547" lon="10.41353864927285"><ele>183.0</ele><time>2026-04-18T09:22:20Z</time></trkpt><trkpt lat="45.54903139304397" lon="10.413603076824101"><ele>183.0</ele><time>2026-04-18T09:22:22Z</time></trkpt><trkpt lat="45.549064500606086" lon="10.413688532062748"><ele>183.0</ele><time>2026-04-18T09:22:24Z</time></trkpt><trkpt lat="45.54912478920154" lon="10.413789116603361"><ele>183.33333333333334</ele><time>2026-04-18T09:22:26Z</time></trkpt><trkpt lat="45.549192177200254" lon="10.413873640462109"><ele>183.66666666666666</ele><time>2026-04-18T09:22:28Z</time></trkpt><trkpt lat="45.54924714685406" lon="10.413970580607826"><ele>184.0</ele><time>2026-04-18T09:22:30Z</time></trkpt><trkpt lat="45.54931375126723" lon="10.414056340839181"><ele>184.33333333333331</ele><time>2026-04-18T09:22:32Z</time></trkpt><trkpt lat="45.54938251833896" lon="10.414148480987484"><ele>184.66666666666666</ele><time>2026-04-18T09:22:34Z</time></trkpt><trkpt lat="45.549437216246524" lon="10.414232749038229"><ele>185.0</ele><time>2026-04-18T09:22:36Z</time></trkpt><trkpt lat="45.54948867325233" lon="10.414313705441536"><ele>185.0</ele><time>2026-04-18T09:22:38Z</time></trkpt><trkpt lat="45.549544263861634" lon="10.414393524637592"><ele>185.0</ele><time>2026-04-18T09:22:40Z</time></trkpt><trkpt lat="45.54960453843308" lon="10.41446546774632"><ele>185.0</ele><time>2026-04-18T09:22:42Z</time></trkpt><trkpt lat="45.549669527914546" lon="10.414551914516448"><ele>185.0</ele><time>2026-04-18T09:22:44Z</time></trkpt><trkpt lat="45.54973003879965" lon="10.414641905922293"><ele>185.0</ele><time>2026-04-18T09:22:46Z</time></trkpt><trkpt lat="45.54979462809355" lon="10.414737483093274"><ele>185.0</ele><time>2026-04-18T09:22:48Z</time></trkpt><trkpt lat="45.549856014034894" lon="10.41482849847935"><ele>185.0</ele><time>2026-04-18T09:22:50Z</time></trkpt><trkpt lat="45.54991672644794" lon="10.414923815329637"><ele>185.0</ele><time>2026-04-18T09:22:52Z</time></trkpt><trkpt lat="45.54997842325557" lon="10.415017710264667"><ele>185.0</ele><time>2026-04-18T09:22:54Z</time></trkpt><trkpt lat="45.55003492283859" lon="10.415110049338333"><ele>185.0</ele><time>2026-04-18T09:22:56Z</time></trkpt><trkpt lat="45.550105866537514" lon="10.415200341972799"><ele>185.0</ele><time>2026-04-18T09:22:58Z</time></trkpt><trkpt lat="45.55018202002028" lon="10.415294432928908"><ele>185.0</ele><time>2026-04-18T09:23:00Z</time></trkpt><trkpt lat="45.55025763206439" lon="10.415379213782527"><ele>185.0</ele><time>2026-04-18T09:23:02Z</time></trkpt><trkpt lat="45.55032962096774" lon="10.415469077372808"><ele>185.0</ele><time>2026-04-18T09:23:04Z</time></trkpt><trkpt lat="45.55039867598159" lon="10.415561877078684"><ele>185.0</ele><time>2026-04-18T09:23:06Z</time></trkpt><trkpt lat="45.55047501606557" lon="10.41564764637594"><ele>185.0</ele><time>2026-04-18T09:23:08Z</time></trkpt><trkpt lat="45.55055083842188" lon="10.415740246903828"><ele>185.4</ele><time>2026-04-18T09:23:10Z</time></trkpt><trkpt lat="45.550624536440246" lon="10.415817857728074"><ele>185.8</ele><time>2026-04-18T09:23:12Z</time></trkpt><trkpt lat="45.5507070405224" lon="10.41587152896695"><ele>186.2</ele><time>2026-04-18T09:23:14Z</time></trkpt><trkpt lat="45.55079213690598" lon="10.415942918446435"><ele>186.6</ele><time>2026-04-18T09:23:16Z</time></trkpt><trkpt lat="45.550884283342256" lon="10.4159931592913"><ele>187.0</ele><time>2026-04-18T09:23:18Z</time></trkpt><trkpt lat="45.55098138127362" lon="10.416039188847884"><ele>187.0</ele><time>2026-04-18T09:23:20Z</time></trkpt><trkpt lat="45.551071339074944" lon="10.416099880123056"><ele>187.0</ele><time>2026-04-18T09:23:22Z</time></trkpt><trkpt lat="45.551157012795" lon="10.41615081721875"><ele>187.0</ele><time>2026-04-18T09:23:24Z</time></trkpt><trkpt lat="45.55123395596252" lon="10.41619119691285"><ele>187.0</ele><time>2026-04-18T09:23:26Z</time></trkpt><trkpt lat="45.55130793811083" lon="10.41623274079064"><ele>187.0</ele><time>2026-04-18T09:23:28Z</time></trkpt><trkpt lat="45.551376399533645" lon="10.416303293939052"><ele>187.0</ele><time>2026-04-18T09:23:30Z</time></trkpt><trkpt lat="45.55145337913843" lon="10.416342842345585"><ele>186.83333333333334</ele><time>2026-04-18T09:23:32Z</time></trkpt><trkpt lat="45.55152028961105" lon="10.416385679034018"><ele>186.66666666666669</ele><time>2026-04-18T09:23:34Z</time></trkpt><trkpt lat="45.551596656073926" lon="10.416429123422215"><ele>186.5</ele><time>2026-04-18T09:23:36Z</time></trkpt><trkpt lat="45.55165903550011" lon="10.41647344631983"><ele>186.33333333333334</ele><time>2026-04-18T09:23:38Z</time></trkpt><trkpt lat="45.55171519879729" lon="10.41654964674687"><ele>186.16666666666666</ele><time>2026-04-18T09:23:41Z</time></trkpt><trkpt lat="45.55164851291877" lon="10.41666314945007"><ele>186.0</ele><time>2026-04-18T09:23:42Z</time></trkpt><trkpt lat="45.55162427168767" lon="10.416779717712544"><ele>186.0</ele><time>2026-04-18T09:23:44Z</time></trkpt><trkpt lat="45.551605185048736" lon="10.416881720017955"><ele>186.0</ele><time>2026-04-18T09:23:46Z</time></trkpt><trkpt lat="45.551618096399544" lon="10.417014407016492"><ele>186.0</ele><time>2026-04-18T09:23:48Z</time></trkpt><trkpt lat="45.55159834896334" lon="10.417141391795166"><ele>186.0</ele><time>2026-04-18T09:23:50Z</time></trkpt><trkpt lat="45.55157573098571" lon="10.417264140411106"><ele>186.0</ele><time>2026-04-18T09:23:52Z</time></trkpt><trkpt lat="45.551553385631415" lon="10.417394414402198"><ele>186.0</ele><time>2026-04-18T09:23:54Z</time></trkpt><trkpt lat="45.55152859401531" lon="10.41753036281814"><ele>186.60000000000002</ele><time>2026-04-18T09:23:56Z</time></trkpt><trkpt lat="45.55148554377973" lon="10.417646602637674"><ele>187.2</ele><time>2026-04-18T09:23:58Z</time></trkpt><trkpt lat="45.5514490407156" lon="10.41773400185391"><ele>187.8</ele><time>2026-04-18T09:24:00Z</time></trkpt><trkpt lat="45.551394090318816" lon="10.41784418199139"><ele>188.39999999999998</ele><time>2026-04-18T09:24:02Z</time></trkpt><trkpt lat="45.55133600781863" lon="10.417969620897736"><ele>189.0</ele><time>2026-04-18T09:24:04Z</time></trkpt><trkpt lat="45.5512747102059" lon="10.418078185796373"><ele>189.2</ele><time>2026-04-18T09:24:06Z</time></trkpt><trkpt lat="45.55120794615371" lon="10.418193534393662"><ele>189.39999999999998</ele><time>2026-04-18T09:24:08Z</time></trkpt><trkpt lat="45.551141514661076" lon="10.418282643388958"><ele>189.6</ele><time>2026-04-18T09:24:10Z</time></trkpt><trkpt lat="45.55107369630091" lon="10.418378798811538"><ele>189.8</ele><time>2026-04-18T09:24:12Z</time></trkpt><trkpt lat="45.55100459570891" lon="10.418484330693225"><ele>190.0</ele><time>2026-04-18T09:24:14Z</time></trkpt><trkpt lat="45.55094602884962" lon="10.418586532664824"><ele>190.0</ele><time>2026-04-18T09:24:16Z</time></trkpt><trkpt lat="45.5508761239792" lon="10.418687714109511"><ele>190.0</ele><time>2026-04-18T09:24:18Z</time></trkpt><trkpt lat="45.55078630813172" lon="10.418763929665982"><ele>190.0</ele><time>2026-04-18T09:24:20Z</time></trkpt><trkpt lat="45.55071849916672" lon="10.41886233171874"><ele>190.0</ele><time>2026-04-18T09:24:22Z</time></trkpt><trkpt lat="45.550644758174016" lon="10.418971183491655"><ele>190.0</ele><time>2026-04-18T09:24:24Z</time></trkpt><trkpt lat="45.55056776843249" lon="10.419085021725534"><ele>189.8</ele><time>2026-04-18T09:24:26Z</time></trkpt><trkpt lat="45.55049797452608" lon="10.419188219986044"><ele>189.6</ele><time>2026-04-18T09:24:28Z</time></trkpt><trkpt lat="45.55042680384096" lon="10.419293454004045"><ele>189.39999999999998</ele><time>2026-04-18T09:24:30Z</time></trkpt><trkpt lat="45.55036286964562" lon="10.419413390020873"><ele>189.2</ele><time>2026-04-18T09:24:32Z</time></trkpt><trkpt lat="45.55028954129319" lon="10.419515051459598"><ele>189.0</ele><time>2026-04-18T09:24:34Z</time></trkpt><trkpt lat="45.55021672135722" lon="10.419599949948035"><ele>189.16666666666666</ele><time>2026-04-18T09:24:36Z</time></trkpt><trkpt lat="45.55015950367839" lon="10.419682646623711"><ele>189.33333333333334</ele><time>2026-04-18T09:24:38Z</time></trkpt><trkpt lat="45.550107882617354" lon="10.41978555602071"><ele>189.5</ele><time>2026-04-18T09:24:40Z</time></trkpt><trkpt lat="45.550042992106164" lon="10.41986091932668"><ele>189.66666666666669</ele><time>2026-04-18T09:24:42Z</time></trkpt><trkpt lat="45.549999735544105" lon="10.419940978671415"><ele>189.83333333333334</ele><time>2026-04-18T09:24:44Z</time></trkpt><trkpt lat="45.54993139931804" lon="10.419973620408951"><ele>190.0</ele><time>2026-04-18T09:24:47Z</time></trkpt><trkpt lat="45.54982218228346" lon="10.419810244905173"><ele>190.0</ele><time>2026-04-18T09:24:53Z</time></trkpt><trkpt lat="45.54975852139005" lon="10.419845569135243"><ele>190.0</ele><time>2026-04-18T09:24:57Z</time></trkpt></trkseg></trk></gpx>